FDX18 VOBL-PANC
Flight info
| Callsign | FDX18 |
|---|---|
| Flight time | N/A |
| Altitude | 29000 |
| Route | LATID8A LATID Q22 VIRAM W57 SAKRO Q22 HIA/N0500F280 W20 PUKES Q24 BUKLO/N0505F300 Q24 DPN J24 ASARI L509 INDEK J121 RN/N0505F290 J186 KAGLO/N0500F310 J186 KAPMI J129 GOTKO G325 PURPA/K0922S0950 B215 MAGIV/K0926S0920 W176 KHG L43 OGIGI/K0924F300 L43 ODNIX T184 TADOT/K0917F310 T230 BALVU L135 BOKIS B156 KUTUL/K0900F330 B156 ROGMA B951 MOTIN M193 PLR M988 ABATA T640 NIDEN/K0895F350 T640 LURET G7 LAVGI N738 BEKMI T454 NISEL M182 PEMID M180 FRENK/N0486F350 B244 OTZ J117 GAL TAGER9 |
| Aircraft | B77L/H-SDE1E2E3FGHIJ2J3J4J5M1RWXY/LB1D1 |
Departure
| Time | 2026-04-28 18:24 |
|---|---|
| Airport | Kempegowda International Airport Bengaluru (VOBL) |
Arrival
| Time | N/A |
|---|---|
| Airport | Ted Stevens Anchorage International Airport (PANC) |
| Time | Latitude | Longitude | Altitude | Speed | Heading |
|---|---|---|---|---|---|
| 2026-04-28 17:58 | 13.20343 | 77.70803 | 3016 ft | 0 kts | 0° |
| 2026-04-28 18:13 | 13.20329 | 77.70803 | 3015 ft | 2 kts | 6° |
| 2026-04-28 18:13 | 13.20313 | 77.70800 | 3015 ft | 2 kts | 12° |
| 2026-04-28 18:13 | 13.20297 | 77.70796 | 3016 ft | 2 kts | 23° |
| 2026-04-28 18:13 | 13.20283 | 77.70788 | 3017 ft | 2 kts | 39° |
| 2026-04-28 18:14 | 13.20272 | 77.70776 | 3021 ft | 2 kts | 60° |
| 2026-04-28 18:14 | 13.20265 | 77.70760 | 3018 ft | 2 kts | 79° |
| 2026-04-28 18:14 | 13.20264 | 77.70747 | 3018 ft | 1 kts | 88° |
| 2026-04-28 18:14 | 13.20264 | 77.70745 | 3018 ft | 0 kts | 88° |
| 2026-04-28 18:16 | 13.20264 | 77.70748 | 3018 ft | 3 kts | 88° |
| 2026-04-28 18:17 | 13.20264 | 77.70780 | 3018 ft | 5 kts | 89° |
| 2026-04-28 18:17 | 13.20263 | 77.70826 | 3015 ft | 10 kts | 91° |
| 2026-04-28 18:17 | 13.20262 | 77.70927 | 3015 ft | 15 kts | 90° |
| 2026-04-28 18:17 | 13.20262 | 77.71031 | 3015 ft | 15 kts | 90° |
| 2026-04-28 18:18 | 13.20261 | 77.71136 | 3015 ft | 15 kts | 90° |
| 2026-04-28 18:18 | 13.20262 | 77.71235 | 3015 ft | 13 kts | 81° |
| 2026-04-28 18:18 | 13.20335 | 77.71274 | 3015 ft | 13 kts | 5° |
| 2026-04-28 18:18 | 13.20395 | 77.71277 | 3015 ft | 13 kts | 1° |
| 2026-04-28 18:19 | 13.20485 | 77.71276 | 3015 ft | 7 kts | 2° |
| 2026-04-28 18:19 | 13.20520 | 77.71308 | 3015 ft | 7 kts | 70° |
| 2026-04-28 18:19 | 13.20523 | 77.71360 | 3015 ft | 8 kts | 89° |
| 2026-04-28 18:19 | 13.20524 | 77.71460 | 3015 ft | 18 kts | 90° |
| 2026-04-28 18:20 | 13.20522 | 77.71591 | 3016 ft | 19 kts | 91° |
| 2026-04-28 18:20 | 13.20521 | 77.71713 | 3016 ft | 17 kts | 90° |
| 2026-04-28 18:20 | 13.20520 | 77.71827 | 3016 ft | 16 kts | 90° |
| 2026-04-28 18:20 | 13.20519 | 77.71940 | 3016 ft | 16 kts | 90° |
| 2026-04-28 18:21 | 13.20518 | 77.72054 | 3016 ft | 16 kts | 90° |
| 2026-04-28 18:21 | 13.20518 | 77.72167 | 3016 ft | 16 kts | 90° |
| 2026-04-28 18:21 | 13.20540 | 77.72274 | 3017 ft | 16 kts | 38° |
| 2026-04-28 18:21 | 13.20649 | 77.72278 | 3016 ft | 16 kts | 342° |
| 2026-04-28 18:22 | 13.20689 | 77.72185 | 3016 ft | 6 kts | 271° |
| 2026-04-28 18:23 | 13.20690 | 77.72032 | 3015 ft | 55 kts | 270° |
| 2026-04-28 18:23 | 13.20696 | 77.71388 | 3015 ft | 125 kts | 270° |
| 2026-04-28 18:24 | 13.20706 | 77.70259 | 3016 ft | 191 kts | 270° |
| 2026-04-28 18:24 | 13.20728 | 77.69294 | 3120 ft | 211 kts | 272° |
| 2026-04-28 18:24 | 13.20770 | 77.67282 | 3919 ft | 218 kts | 272° |
| 2026-04-28 18:24 | 13.21188 | 77.65790 | 4232 ft | 225 kts | 312° |
| 2026-04-28 18:25 | 13.22391 | 77.64773 | 4648 ft | 224 kts | 323° |
| 2026-04-28 18:25 | 13.23500 | 77.63555 | 4753 ft | 245 kts | 307° |
| 2026-04-28 18:25 | 13.24594 | 77.62113 | 4571 ft | 266 kts | 325° |
| 2026-04-28 18:26 | 13.28093 | 77.61734 | 5153 ft | 256 kts | 21° |
| 2026-04-28 18:26 | 13.29757 | 77.62301 | 5749 ft | 254 kts | 20° |
| 2026-04-28 18:26 | 13.31510 | 77.62866 | 5874 ft | 273 kts | 19° |
| 2026-04-28 18:26 | 13.33370 | 77.63441 | 6189 ft | 284 kts | 18° |
| 2026-04-28 18:27 | 13.35290 | 77.64016 | 6633 ft | 290 kts | 18° |
| 2026-04-28 18:27 | 13.37242 | 77.64585 | 7097 ft | 293 kts | 17° |
| 2026-04-28 18:27 | 13.39216 | 77.65150 | 7630 ft | 296 kts | 17° |
| 2026-04-28 18:27 | 13.41210 | 77.65712 | 8172 ft | 298 kts | 17° |
| 2026-04-28 18:28 | 13.43221 | 77.66272 | 8699 ft | 301 kts | 17° |
| 2026-04-28 18:28 | 13.45225 | 77.66827 | 9211 ft | 303 kts | 17° |
| 2026-04-28 18:28 | 13.47272 | 77.67391 | 9740 ft | 306 kts | 17° |
| 2026-04-28 18:28 | 13.49344 | 77.67960 | 10206 ft | 310 kts | 16° |
| 2026-04-28 18:29 | 13.51485 | 77.68548 | 10339 ft | 327 kts | 16° |
| 2026-04-28 18:29 | 13.53741 | 77.69167 | 10482 ft | 344 kts | 16° |
| 2026-04-28 18:29 | 13.56110 | 77.69816 | 10613 ft | 361 kts | 16° |
| 2026-04-28 18:29 | 13.58585 | 77.70493 | 10851 ft | 374 kts | 16° |
| 2026-04-28 18:30 | 13.61128 | 77.71187 | 11240 ft | 381 kts | 16° |
| 2026-04-28 18:30 | 13.62831 | 77.71652 | 11568 ft | 384 kts | 15° |
| 2026-04-28 18:30 | 13.66302 | 77.72599 | 12327 ft | 387 kts | 15° |
| 2026-04-28 18:30 | 13.68922 | 77.73314 | 12901 ft | 389 kts | 15° |
| 2026-04-28 18:31 | 13.71510 | 77.74021 | 13445 ft | 392 kts | 15° |
| 2026-04-28 18:31 | 13.74154 | 77.74744 | 13934 ft | 395 kts | 15° |
| 2026-04-28 18:31 | 13.76829 | 77.75476 | 14385 ft | 398 kts | 15° |
| 2026-04-28 18:31 | 13.79516 | 77.76211 | 14838 ft | 401 kts | 15° |
| 2026-04-28 18:32 | 13.82224 | 77.76951 | 15288 ft | 404 kts | 15° |
| 2026-04-28 18:32 | 13.84954 | 77.77699 | 15740 ft | 407 kts | 15° |
| 2026-04-28 18:32 | 13.87701 | 77.78451 | 16177 ft | 410 kts | 15° |
| 2026-04-28 18:32 | 13.90470 | 77.79209 | 16618 ft | 413 kts | 15° |
| 2026-04-28 18:33 | 13.93257 | 77.79973 | 17086 ft | 415 kts | 15° |
| 2026-04-28 18:33 | 13.96050 | 77.80738 | 17539 ft | 417 kts | 14° |
| 2026-04-28 18:33 | 13.98862 | 77.81509 | 17958 ft | 420 kts | 14° |
| 2026-04-28 18:33 | 14.01694 | 77.82285 | 18343 ft | 423 kts | 14° |
| 2026-04-28 18:34 | 14.04517 | 77.83059 | 18686 ft | 426 kts | 14° |
| 2026-04-28 18:34 | 14.07394 | 77.83848 | 19011 ft | 430 kts | 14° |
| 2026-04-28 18:34 | 14.10293 | 77.84643 | 19341 ft | 433 kts | 14° |
| 2026-04-28 18:34 | 14.13219 | 77.85446 | 19672 ft | 436 kts | 14° |
| 2026-04-28 18:35 | 14.16161 | 77.86254 | 20002 ft | 439 kts | 14° |
| 2026-04-28 18:35 | 14.19124 | 77.87068 | 20318 ft | 442 kts | 14° |
| 2026-04-28 18:35 | 14.22103 | 77.87886 | 20621 ft | 445 kts | 14° |
| 2026-04-28 18:35 | 14.25118 | 77.88714 | 20934 ft | 449 kts | 14° |
| 2026-04-28 18:36 | 14.28152 | 77.89548 | 21257 ft | 451 kts | 14° |
| 2026-04-28 18:36 | 14.31195 | 77.90385 | 21602 ft | 453 kts | 14° |
| 2026-04-28 18:36 | 14.34253 | 77.91226 | 21878 ft | 456 kts | 14° |
| 2026-04-28 18:36 | 14.37297 | 77.92063 | 22165 ft | 459 kts | 14° |
| 2026-04-28 18:37 | 14.40393 | 77.92915 | 22446 ft | 462 kts | 14° |
| 2026-04-28 18:37 | 14.43512 | 77.93773 | 22747 ft | 465 kts | 14° |
| 2026-04-28 18:37 | 14.46647 | 77.94635 | 23032 ft | 468 kts | 14° |
| 2026-04-28 18:37 | 14.49828 | 77.95353 | 23295 ft | 470 kts | 9° |
| 2026-04-28 18:38 | 14.53075 | 77.95908 | 23523 ft | 473 kts | 8° |
| 2026-04-28 18:38 | 14.56342 | 77.96439 | 23727 ft | 476 kts | 8° |
| 2026-04-28 18:38 | 14.59616 | 77.96968 | 24006 ft | 476 kts | 8° |
| 2026-04-28 18:38 | 14.62894 | 77.97503 | 24309 ft | 477 kts | 8° |
| 2026-04-28 18:39 | 14.66132 | 77.98039 | 24590 ft | 478 kts | 7° |
| 2026-04-28 18:39 | 14.69417 | 77.98590 | 24836 ft | 479 kts | 7° |
| 2026-04-28 18:39 | 14.72715 | 77.99148 | 25085 ft | 481 kts | 7° |
| 2026-04-28 18:39 | 14.76022 | 77.99709 | 25336 ft | 482 kts | 7° |
| 2026-04-28 18:40 | 14.79337 | 78.00273 | 25590 ft | 484 kts | 7° |
| 2026-04-28 18:40 | 14.82666 | 78.00838 | 25856 ft | 485 kts | 7° |
| 2026-04-28 18:40 | 14.85999 | 78.01405 | 26102 ft | 486 kts | 7° |
| 2026-04-28 18:40 | 14.89342 | 78.01973 | 26350 ft | 488 kts | 7° |
| 2026-04-28 18:41 | 14.92693 | 78.02542 | 26584 ft | 489 kts | 7° |
| 2026-04-28 18:41 | 14.96060 | 78.03114 | 26829 ft | 490 kts | 7° |
| 2026-04-28 18:41 | 14.99436 | 78.03688 | 27069 ft | 492 kts | 7° |
| 2026-04-28 18:41 | 15.02817 | 78.04263 | 27307 ft | 493 kts | 7° |
| 2026-04-28 18:42 | 15.06210 | 78.04840 | 27555 ft | 495 kts | 6° |
| 2026-04-28 18:42 | 15.09612 | 78.05419 | 27785 ft | 496 kts | 6° |
| 2026-04-28 18:42 | 15.12978 | 78.05992 | 28010 ft | 497 kts | 6° |
| 2026-04-28 18:42 | 15.16405 | 78.06576 | 28234 ft | 498 kts | 6° |
| 2026-04-28 18:43 | 15.19830 | 78.07159 | 28448 ft | 500 kts | 6° |
| 2026-04-28 18:43 | 15.23270 | 78.07745 | 28651 ft | 501 kts | 6° |
| 2026-04-28 18:43 | 15.26717 | 78.08332 | 28785 ft | 504 kts | 6° |
| 2026-04-28 18:44 | 15.33619 | 78.09510 | 28876 ft | 507 kts | 6° |
| 2026-04-28 18:44 | 15.44142 | 78.11253 | 28861 ft | 511 kts | 5° |
| 2026-04-28 18:45 | 15.51184 | 78.12388 | 28866 ft | 512 kts | 5° |
| 2026-04-28 18:45 | 15.58185 | 78.13526 | 28857 ft | 512 kts | 5° |
| 2026-04-28 18:46 | 15.65217 | 78.14674 | 28862 ft | 511 kts | 5° |
| 2026-04-28 18:46 | 15.72244 | 78.15821 | 28862 ft | 510 kts | 5° |
| 2026-04-28 18:47 | 15.79256 | 78.16961 | 28864 ft | 509 kts | 5° |
| 2026-04-28 18:47 | 15.86209 | 78.18090 | 28862 ft | 509 kts | 5° |
| 2026-04-28 18:48 | 15.93205 | 78.19228 | 28866 ft | 509 kts | 5° |
| 2026-04-28 18:48 | 16.00199 | 78.20367 | 28865 ft | 509 kts | 5° |
| 2026-04-28 18:49 | 16.04880 | 78.21130 | 28874 ft | 509 kts | 4° |
| 2026-04-28 18:49 | 16.14221 | 78.22652 | 28870 ft | 511 kts | 4° |
| 2026-04-28 18:50 | 16.21250 | 78.23799 | 28872 ft | 512 kts | 4° |
| 2026-04-28 18:50 | 16.28292 | 78.24950 | 28874 ft | 513 kts | 4° |
| 2026-04-28 18:51 | 16.35349 | 78.26103 | 28876 ft | 513 kts | 5° |
| 2026-04-28 18:51 | 16.42367 | 78.27252 | 28875 ft | 513 kts | 4° |
| 2026-04-28 18:52 | 16.49422 | 78.28407 | 28878 ft | 513 kts | 4° |
| 2026-04-28 18:52 | 16.56475 | 78.29562 | 28878 ft | 513 kts | 4° |
| 2026-04-28 18:53 | 16.63530 | 78.30725 | 28881 ft | 513 kts | 4° |
| 2026-04-28 18:53 | 16.70582 | 78.31894 | 28885 ft | 513 kts | 4° |
| 2026-04-28 18:54 | 16.77631 | 78.33062 | 28896 ft | 513 kts | 4° |
| 2026-04-28 18:54 | 16.84683 | 78.34232 | 28884 ft | 513 kts | 4° |
| 2026-04-28 18:55 | 16.90543 | 78.35204 | 28897 ft | 513 kts | 4° |
| 2026-04-28 18:55 | 16.98790 | 78.36573 | 28907 ft | 513 kts | 4° |
| 2026-04-28 18:56 | 17.05844 | 78.37745 | 28906 ft | 513 kts | 4° |
| 2026-04-28 18:56 | 17.12854 | 78.38911 | 28915 ft | 514 kts | 4° |
| 2026-04-28 18:57 | 17.19915 | 78.40031 | 28910 ft | 511 kts | 0° |
| 2026-04-28 18:57 | 17.26967 | 78.40126 | 28918 ft | 503 kts | 349° |
| 2026-04-28 18:58 | 17.33880 | 78.39175 | 28910 ft | 501 kts | 347° |
| 2026-04-28 18:58 | 17.40780 | 78.38155 | 28928 ft | 501 kts | 347° |
| 2026-04-28 18:59 | 17.47704 | 78.37171 | 28894 ft | 502 kts | 347° |
| 2026-04-28 18:59 | 17.54640 | 78.36209 | 28878 ft | 501 kts | 347° |
| 2026-04-28 19:00 | 17.61510 | 78.35259 | 28868 ft | 501 kts | 347° |
| 2026-04-28 19:00 | 17.68415 | 78.34300 | 28855 ft | 500 kts | 347° |
| 2026-04-28 19:01 | 17.75308 | 78.33340 | 28883 ft | 499 kts | 347° |
| 2026-04-28 19:01 | 17.82194 | 78.32380 | 28850 ft | 499 kts | 347° |
| 2026-04-28 19:02 | 17.89068 | 78.31422 | 28848 ft | 498 kts | 347° |
| 2026-04-28 19:02 | 17.95934 | 78.30464 | 28835 ft | 497 kts | 347° |
| 2026-04-28 19:03 | 18.02787 | 78.29507 | 28838 ft | 496 kts | 347° |
| 2026-04-28 19:03 | 18.09597 | 78.28563 | 28867 ft | 496 kts | 348° |
| 2026-04-28 19:04 | 18.16447 | 78.27617 | 28837 ft | 496 kts | 348° |
| 2026-04-28 19:04 | 18.23303 | 78.26669 | 28822 ft | 496 kts | 348° |
| 2026-04-28 19:05 | 18.30145 | 78.25721 | 28827 ft | 496 kts | 348° |
| 2026-04-28 19:05 | 18.36985 | 78.24771 | 28815 ft | 495 kts | 348° |
| 2026-04-28 19:06 | 18.42670 | 78.23982 | 28820 ft | 495 kts | 348° |
| 2026-04-28 19:06 | 18.50665 | 78.22870 | 28804 ft | 496 kts | 348° |
| 2026-04-28 19:07 | 18.57456 | 78.21925 | 28808 ft | 495 kts | 348° |
| 2026-04-28 19:07 | 18.64296 | 78.20973 | 28794 ft | 496 kts | 348° |
| 2026-04-28 19:08 | 18.71140 | 78.20019 | 28792 ft | 496 kts | 348° |
| 2026-04-28 19:08 | 18.77994 | 78.19062 | 28787 ft | 497 kts | 349° |
| 2026-04-28 19:09 | 18.84855 | 78.18105 | 28785 ft | 498 kts | 349° |
| 2026-04-28 19:09 | 18.90566 | 78.17308 | 28778 ft | 498 kts | 349° |
| 2026-04-28 19:10 | 18.98568 | 78.16190 | 28779 ft | 498 kts | 349° |
| 2026-04-28 19:10 | 19.04320 | 78.15385 | 28773 ft | 498 kts | 349° |
| 2026-04-28 19:11 | 19.11193 | 78.14422 | 28774 ft | 499 kts | 349° |
| 2026-04-28 19:11 | 19.18037 | 78.13463 | 28785 ft | 500 kts | 349° |
| 2026-04-28 19:12 | 19.24948 | 78.12493 | 28779 ft | 501 kts | 349° |
| 2026-04-28 19:12 | 19.31831 | 78.11304 | 28777 ft | 501 kts | 346° |
| 2026-04-28 19:13 | 19.38674 | 78.09923 | 28774 ft | 501 kts | 346° |
| 2026-04-28 19:13 | 19.45529 | 78.08556 | 28779 ft | 501 kts | 346° |
| 2026-04-28 19:14 | 19.52395 | 78.07227 | 28780 ft | 501 kts | 347° |
| 2026-04-28 19:14 | 19.59263 | 78.05912 | 28772 ft | 501 kts | 347° |
| 2026-04-28 19:15 | 19.66117 | 78.04599 | 28765 ft | 500 kts | 347° |
| 2026-04-28 19:15 | 19.71823 | 78.03503 | 28765 ft | 500 kts | 347° |
| 2026-04-28 19:16 | 19.79825 | 78.01962 | 28756 ft | 500 kts | 347° |
| 2026-04-28 19:16 | 19.86672 | 78.00643 | 28754 ft | 499 kts | 347° |
| 2026-04-28 19:17 | 19.93506 | 77.99325 | 28757 ft | 499 kts | 347° |
| 2026-04-28 19:17 | 20.00287 | 77.98017 | 28760 ft | 499 kts | 347° |
| 2026-04-28 19:18 | 20.07115 | 77.96697 | 28767 ft | 499 kts | 347° |
| 2026-04-28 19:18 | 20.13950 | 77.95376 | 28770 ft | 499 kts | 346° |
| 2026-04-28 19:19 | 20.20782 | 77.94054 | 28764 ft | 499 kts | 346° |
| 2026-04-28 19:19 | 20.27615 | 77.92731 | 28765 ft | 498 kts | 346° |
| 2026-04-28 19:20 | 20.34450 | 77.91406 | 28762 ft | 498 kts | 346° |
| 2026-04-28 19:20 | 20.41227 | 77.90091 | 28779 ft | 498 kts | 346° |
| 2026-04-28 19:21 | 20.48043 | 77.88767 | 28762 ft | 497 kts | 346° |
| 2026-04-28 19:21 | 20.54849 | 77.87453 | 28759 ft | 497 kts | 347° |
| 2026-04-28 19:22 | 20.60558 | 77.86409 | 28759 ft | 497 kts | 347° |
| 2026-04-28 19:22 | 20.68475 | 77.84963 | 28760 ft | 496 kts | 347° |
| 2026-04-28 19:23 | 20.75269 | 77.83597 | 28771 ft | 496 kts | 346° |
| 2026-04-28 19:23 | 20.82037 | 77.82157 | 28759 ft | 496 kts | 346° |
| 2026-04-28 19:24 | 20.88771 | 77.80750 | 28766 ft | 496 kts | 346° |
| 2026-04-28 19:24 | 20.95553 | 77.79354 | 28767 ft | 497 kts | 346° |
| 2026-04-28 19:25 | 21.02352 | 77.77999 | 28769 ft | 497 kts | 346° |
| 2026-04-28 19:25 | 21.09155 | 77.76647 | 28783 ft | 497 kts | 346° |
| 2026-04-28 19:26 | 21.15956 | 77.75287 | 28785 ft | 497 kts | 346° |
| 2026-04-28 19:26 | 21.22764 | 77.73920 | 28794 ft | 497 kts | 346° |
| 2026-04-28 19:27 | 21.29553 | 77.72557 | 28793 ft | 496 kts | 346° |
| 2026-04-28 19:27 | 21.36344 | 77.71191 | 28828 ft | 496 kts | 346° |
| 2026-04-28 19:28 | 21.43135 | 77.69825 | 28828 ft | 497 kts | 346° |
| 2026-04-28 19:28 | 21.49886 | 77.68465 | 28823 ft | 497 kts | 346° |
| 2026-04-28 19:29 | 21.55555 | 77.67346 | 28823 ft | 497 kts | 347° |
| 2026-04-28 19:29 | 21.63517 | 77.65837 | 28836 ft | 497 kts | 347° |
| 2026-04-28 19:30 | 21.70330 | 77.64544 | 28838 ft | 497 kts | 347° |
| 2026-04-28 19:30 | 21.77136 | 77.63242 | 28837 ft | 497 kts | 347° |
| 2026-04-28 19:31 | 21.83948 | 77.61935 | 28822 ft | 497 kts | 347° |
| 2026-04-28 19:31 | 21.90726 | 77.60634 | 28832 ft | 497 kts | 347° |
| 2026-04-28 19:32 | 21.97540 | 77.59325 | 28844 ft | 497 kts | 347° |
| 2026-04-28 19:32 | 22.04342 | 77.58017 | 28821 ft | 496 kts | 346° |
| 2026-04-28 19:33 | 22.11138 | 77.56709 | 28830 ft | 495 kts | 346° |
| 2026-04-28 19:33 | 22.17912 | 77.55396 | 28819 ft | 494 kts | 346° |
| 2026-04-28 19:34 | 22.24680 | 77.54074 | 28827 ft | 494 kts | 346° |
| 2026-04-28 19:34 | 22.31442 | 77.52753 | 28836 ft | 493 kts | 346° |
| 2026-04-28 19:35 | 22.38203 | 77.51431 | 28815 ft | 494 kts | 346° |
| 2026-04-28 19:35 | 22.44964 | 77.50109 | 28811 ft | 494 kts | 346° |
| 2026-04-28 19:36 | 22.51726 | 77.48785 | 28809 ft | 494 kts | 346° |
| 2026-04-28 19:36 | 22.58487 | 77.47460 | 28807 ft | 494 kts | 346° |
| 2026-04-28 19:37 | 22.64113 | 77.46357 | 28818 ft | 494 kts | 346° |
| 2026-04-28 19:37 | 22.72029 | 77.44802 | 28804 ft | 494 kts | 346° |
| 2026-04-28 19:38 | 22.78763 | 77.43479 | 28804 ft | 494 kts | 346° |
| 2026-04-28 19:38 | 22.85540 | 77.42146 | 28804 ft | 494 kts | 346° |
| 2026-04-28 19:39 | 22.92306 | 77.40813 | 28803 ft | 494 kts | 346° |
| 2026-04-28 19:39 | 22.99035 | 77.39487 | 28809 ft | 494 kts | 346° |
| 2026-04-28 19:40 | 23.05784 | 77.38155 | 28805 ft | 493 kts | 346° |
| 2026-04-28 19:40 | 23.12527 | 77.36822 | 28807 ft | 492 kts | 346° |
| 2026-04-28 19:41 | 23.19266 | 77.35489 | 28810 ft | 492 kts | 346° |
| 2026-04-28 19:41 | 23.26011 | 77.34154 | 28813 ft | 492 kts | 346° |
| 2026-04-28 19:42 | 23.32839 | 77.33380 | 28805 ft | 495 kts | 354° |
| 2026-04-28 19:42 | 23.38561 | 77.33150 | 28803 ft | 495 kts | 354° |
| 2026-04-28 19:43 | 23.46563 | 77.32835 | 28806 ft | 495 kts | 354° |
| 2026-04-28 19:43 | 23.53451 | 77.32528 | 28800 ft | 495 kts | 354° |
| 2026-04-28 19:44 | 23.60342 | 77.32203 | 28806 ft | 495 kts | 354° |
| 2026-04-28 19:44 | 23.67226 | 77.31877 | 28794 ft | 495 kts | 354° |
| 2026-04-28 19:45 | 23.74104 | 77.31552 | 28789 ft | 494 kts | 354° |
| 2026-04-28 19:45 | 23.80974 | 77.31229 | 28796 ft | 494 kts | 354° |
| 2026-04-28 19:46 | 23.87842 | 77.30905 | 28795 ft | 494 kts | 354° |
| 2026-04-28 19:46 | 23.94666 | 77.30583 | 28788 ft | 494 kts | 354° |
| 2026-04-28 19:47 | 24.01534 | 77.30258 | 28781 ft | 494 kts | 354° |
| 2026-04-28 19:47 | 24.08406 | 77.29933 | 28778 ft | 494 kts | 354° |
| 2026-04-28 19:48 | 24.15280 | 77.29608 | 28776 ft | 494 kts | 354° |
| 2026-04-28 19:48 | 24.22153 | 77.29282 | 28779 ft | 495 kts | 354° |
| 2026-04-28 19:49 | 24.28991 | 77.28958 | 28769 ft | 495 kts | 354° |
| 2026-04-28 19:49 | 24.35872 | 77.28631 | 28760 ft | 495 kts | 354° |
| 2026-04-28 19:50 | 24.46200 | 77.28140 | 28762 ft | 495 kts | 354° |
| 2026-04-28 19:51 | 24.53090 | 77.27812 | 28756 ft | 495 kts | 354° |
| 2026-04-28 19:51 | 24.59968 | 77.27484 | 28758 ft | 495 kts | 354° |
| 2026-04-28 19:52 | 24.66852 | 77.27155 | 28752 ft | 495 kts | 354° |
| 2026-04-28 19:52 | 24.73700 | 77.26836 | 28750 ft | 495 kts | 354° |
| 2026-04-28 19:53 | 24.80582 | 77.26541 | 28750 ft | 495 kts | 354° |
| 2026-04-28 19:53 | 24.87468 | 77.26246 | 28742 ft | 495 kts | 354° |
| 2026-04-28 19:54 | 24.94352 | 77.25947 | 28745 ft | 495 kts | 354° |
| 2026-04-28 19:54 | 25.01226 | 77.25648 | 28739 ft | 495 kts | 354° |
| 2026-04-28 19:55 | 25.08109 | 77.25395 | 28741 ft | 495 kts | 355° |
| 2026-04-28 19:55 | 25.14972 | 77.25161 | 28730 ft | 496 kts | 355° |
| 2026-04-28 19:56 | 25.21871 | 77.24921 | 28727 ft | 496 kts | 355° |
| 2026-04-28 19:56 | 25.28772 | 77.24676 | 28731 ft | 497 kts | 355° |
| 2026-04-28 19:57 | 25.35689 | 77.24428 | 28721 ft | 497 kts | 355° |
| 2026-04-28 19:57 | 25.42602 | 77.24180 | 28727 ft | 498 kts | 355° |
| 2026-04-28 19:58 | 25.49545 | 77.23931 | 28724 ft | 499 kts | 355° |
| 2026-04-28 19:58 | 25.56491 | 77.23682 | 28721 ft | 500 kts | 355° |
| 2026-04-28 19:59 | 25.62277 | 77.23474 | 28715 ft | 501 kts | 355° |
| 2026-04-28 19:59 | 25.69249 | 77.23223 | 28712 ft | 501 kts | 355° |
| 2026-04-28 20:00 | 25.76223 | 77.22972 | 28716 ft | 501 kts | 355° |
| 2026-04-28 20:00 | 25.83182 | 77.22722 | 28700 ft | 499 kts | 354° |
| 2026-04-28 20:01 | 25.90073 | 77.22474 | 28700 ft | 498 kts | 355° |
| 2026-04-28 20:01 | 25.96988 | 77.22224 | 28701 ft | 497 kts | 354° |
| 2026-04-28 20:02 | 26.03902 | 77.21973 | 28708 ft | 497 kts | 354° |
| 2026-04-28 20:02 | 26.10828 | 77.21722 | 28704 ft | 497 kts | 354° |
| 2026-04-28 20:03 | 26.17748 | 77.21449 | 28707 ft | 498 kts | 354° |
| 2026-04-28 20:03 | 26.24629 | 77.21089 | 28700 ft | 498 kts | 353° |
| 2026-04-28 20:04 | 26.31573 | 77.20710 | 28712 ft | 499 kts | 353° |
| 2026-04-28 20:04 | 26.38527 | 77.20342 | 28702 ft | 500 kts | 353° |
| 2026-04-28 20:05 | 26.45488 | 77.19981 | 28708 ft | 501 kts | 353° |
| 2026-04-28 20:05 | 26.52456 | 77.19621 | 28705 ft | 501 kts | 353° |
| 2026-04-28 20:06 | 26.59425 | 77.19260 | 28712 ft | 501 kts | 353° |
| 2026-04-28 20:06 | 26.66396 | 77.18898 | 28690 ft | 501 kts | 353° |
| 2026-04-28 20:07 | 26.73365 | 77.18535 | 28687 ft | 501 kts | 353° |
| 2026-04-28 20:07 | 26.80294 | 77.18174 | 28685 ft | 501 kts | 353° |
| 2026-04-28 20:08 | 26.87254 | 77.17810 | 28685 ft | 501 kts | 353° |
| 2026-04-28 20:08 | 26.94233 | 77.17445 | 28687 ft | 502 kts | 353° |
| 2026-04-28 20:09 | 27.01222 | 77.17080 | 28676 ft | 503 kts | 353° |
| 2026-04-28 20:09 | 27.08214 | 77.16713 | 28676 ft | 504 kts | 353° |
| 2026-04-28 20:10 | 27.15226 | 77.16346 | 28680 ft | 504 kts | 353° |
| 2026-04-28 20:10 | 27.22194 | 77.15980 | 28684 ft | 506 kts | 354° |
| 2026-04-28 20:11 | 27.29243 | 77.15609 | 28685 ft | 507 kts | 354° |
| 2026-04-28 20:11 | 27.36309 | 77.15237 | 28682 ft | 509 kts | 354° |
| 2026-04-28 20:12 | 27.43393 | 77.14864 | 28674 ft | 510 kts | 354° |
| 2026-04-28 20:12 | 27.50486 | 77.14493 | 28686 ft | 510 kts | 354° |
| 2026-04-28 20:13 | 27.57540 | 77.14152 | 28676 ft | 511 kts | 354° |
| 2026-04-28 20:13 | 27.64643 | 77.13809 | 28677 ft | 510 kts | 354° |
| 2026-04-28 20:14 | 27.71756 | 77.13467 | 28675 ft | 510 kts | 354° |
| 2026-04-28 20:14 | 27.78801 | 77.13134 | 28673 ft | 509 kts | 354° |
| 2026-04-28 20:15 | 27.85884 | 77.12798 | 28677 ft | 509 kts | 354° |
| 2026-04-28 20:15 | 27.92955 | 77.12461 | 28678 ft | 508 kts | 354° |
| 2026-04-28 20:16 | 28.00022 | 77.12123 | 28679 ft | 508 kts | 354° |
| 2026-04-28 20:16 | 28.07103 | 77.11784 | 28691 ft | 509 kts | 354° |
| 2026-04-28 20:17 | 28.14184 | 77.11445 | 28687 ft | 509 kts | 354° |
| 2026-04-28 20:17 | 28.21277 | 77.11105 | 28679 ft | 510 kts | 354° |
| 2026-04-28 20:18 | 28.28368 | 77.10765 | 28676 ft | 510 kts | 354° |
| 2026-04-28 20:18 | 28.35462 | 77.10424 | 28691 ft | 511 kts | 354° |
| 2026-04-28 20:19 | 28.42531 | 77.10083 | 28666 ft | 511 kts | 354° |
| 2026-04-28 20:19 | 28.49686 | 77.09739 | 28661 ft | 511 kts | 354° |
| 2026-04-28 20:20 | 28.56472 | 77.08183 | 28681 ft | 497 kts | 332° |
| 2026-04-28 20:20 | 28.62097 | 77.03845 | 28664 ft | 484 kts | 312° |
| 2026-04-28 20:21 | 28.66849 | 76.98497 | 28675 ft | 487 kts | 312° |
| 2026-04-28 20:21 | 28.71742 | 76.93124 | 28680 ft | 490 kts | 313° |
| 2026-04-28 20:22 | 28.76704 | 76.87751 | 28683 ft | 493 kts | 313° |
| 2026-04-28 20:22 | 28.81666 | 76.82410 | 28679 ft | 487 kts | 315° |
| 2026-04-28 20:23 | 28.87022 | 76.77733 | 28688 ft | 488 kts | 321° |
| 2026-04-28 20:23 | 28.92566 | 76.73208 | 28697 ft | 490 kts | 321° |
| 2026-04-28 20:24 | 28.98107 | 76.68653 | 28695 ft | 491 kts | 321° |
| 2026-04-28 20:24 | 29.03644 | 76.64061 | 28681 ft | 492 kts | 321° |
| 2026-04-28 20:25 | 29.09177 | 76.59454 | 28683 ft | 492 kts | 321° |
| 2026-04-28 20:25 | 29.14699 | 76.54850 | 28683 ft | 491 kts | 321° |
| 2026-04-28 20:26 | 29.20215 | 76.50247 | 28674 ft | 490 kts | 321° |
| 2026-04-28 20:26 | 29.25710 | 76.45658 | 28672 ft | 488 kts | 321° |
| 2026-04-28 20:27 | 29.31172 | 76.41087 | 28669 ft | 485 kts | 321° |
| 2026-04-28 20:27 | 29.36609 | 76.36532 | 28678 ft | 483 kts | 321° |
| 2026-04-28 20:28 | 29.41998 | 76.32011 | 28683 ft | 482 kts | 321° |
| 2026-04-28 20:28 | 29.47410 | 76.27463 | 28671 ft | 483 kts | 321° |
| 2026-04-28 20:29 | 29.52828 | 76.22906 | 28678 ft | 483 kts | 321° |
| 2026-04-28 20:29 | 29.58250 | 76.18339 | 28673 ft | 484 kts | 321° |
| 2026-04-28 20:30 | 29.63676 | 76.13761 | 28675 ft | 484 kts | 321° |
| 2026-04-28 20:30 | 29.69096 | 76.09184 | 28680 ft | 483 kts | 321° |
| 2026-04-28 20:31 | 29.74512 | 76.04602 | 28675 ft | 482 kts | 321° |
| 2026-04-28 20:31 | 29.79884 | 76.00051 | 28670 ft | 482 kts | 321° |
| 2026-04-28 20:32 | 29.85243 | 75.95535 | 28671 ft | 482 kts | 322° |
| 2026-04-28 20:32 | 29.90691 | 75.91036 | 28670 ft | 482 kts | 322° |
| 2026-04-28 20:33 | 29.96146 | 75.86536 | 28671 ft | 483 kts | 322° |
| 2026-04-28 20:33 | 30.01620 | 75.82001 | 28678 ft | 484 kts | 322° |
| 2026-04-28 20:34 | 30.07084 | 75.77460 | 28672 ft | 484 kts | 322° |
| 2026-04-28 20:34 | 30.12548 | 75.72912 | 28674 ft | 484 kts | 322° |
| 2026-04-28 20:35 | 30.18026 | 75.68347 | 28686 ft | 485 kts | 322° |
| 2026-04-28 20:35 | 30.23471 | 75.63802 | 28678 ft | 485 kts | 322° |
| 2026-04-28 20:36 | 30.28948 | 75.59225 | 28677 ft | 486 kts | 322° |
| 2026-04-28 20:36 | 30.34427 | 75.54639 | 28680 ft | 486 kts | 322° |
| 2026-04-28 20:37 | 30.39911 | 75.50042 | 28686 ft | 487 kts | 322° |
| 2026-04-28 20:37 | 30.45394 | 75.45441 | 28684 ft | 487 kts | 322° |
| 2026-04-28 20:38 | 30.50876 | 75.40833 | 28687 ft | 487 kts | 322° |
| 2026-04-28 20:38 | 30.56360 | 75.36217 | 28688 ft | 487 kts | 322° |
| 2026-04-28 20:39 | 30.61839 | 75.31598 | 28689 ft | 487 kts | 322° |
| 2026-04-28 20:39 | 30.67324 | 75.26968 | 28694 ft | 487 kts | 322° |
| 2026-04-28 20:40 | 30.72811 | 75.22328 | 28699 ft | 489 kts | 322° |
| 2026-04-28 20:40 | 30.78281 | 75.17698 | 28708 ft | 490 kts | 322° |
| 2026-04-28 20:41 | 30.83518 | 75.12657 | 28713 ft | 488 kts | 315° |
| 2026-04-28 20:41 | 30.88459 | 75.07220 | 28713 ft | 489 kts | 315° |
| 2026-04-28 20:42 | 30.93398 | 75.01782 | 28730 ft | 488 kts | 314° |
| 2026-04-28 20:42 | 30.98279 | 74.96446 | 28713 ft | 486 kts | 314° |
| 2026-04-28 20:43 | 31.03197 | 74.91079 | 28711 ft | 484 kts | 314° |
| 2026-04-28 20:43 | 31.08073 | 74.85751 | 28719 ft | 482 kts | 314° |
| 2026-04-28 20:44 | 31.12961 | 74.80398 | 28717 ft | 482 kts | 314° |
| 2026-04-28 20:44 | 31.17855 | 74.75031 | 28739 ft | 483 kts | 314° |
| 2026-04-28 20:45 | 31.22755 | 74.69647 | 28727 ft | 484 kts | 314° |
| 2026-04-28 20:45 | 31.27668 | 74.64241 | 28727 ft | 485 kts | 314° |
| 2026-04-28 20:46 | 31.32581 | 74.58830 | 28725 ft | 485 kts | 314° |
| 2026-04-28 20:46 | 31.37686 | 74.53717 | 28728 ft | 487 kts | 320° |
| 2026-04-28 20:47 | 31.43096 | 74.48908 | 28726 ft | 488 kts | 319° |
| 2026-04-28 20:47 | 31.48517 | 74.44088 | 28722 ft | 489 kts | 319° |
| 2026-04-28 20:48 | 31.53899 | 74.39259 | 28721 ft | 489 kts | 319° |
| 2026-04-28 20:48 | 31.59299 | 74.34387 | 28720 ft | 490 kts | 319° |
| 2026-04-28 20:49 | 31.64702 | 74.29503 | 28742 ft | 490 kts | 319° |
| 2026-04-28 20:49 | 31.70094 | 74.24624 | 28723 ft | 488 kts | 319° |
| 2026-04-28 20:50 | 31.74551 | 74.20586 | 28720 ft | 486 kts | 318° |
| 2026-04-28 20:50 | 31.79894 | 74.15738 | 28711 ft | 484 kts | 318° |
| 2026-04-28 20:51 | 31.85216 | 74.10901 | 28713 ft | 483 kts | 318° |
| 2026-04-28 20:51 | 31.90528 | 74.06066 | 28717 ft | 483 kts | 319° |
| 2026-04-28 20:52 | 31.95849 | 74.01215 | 28724 ft | 484 kts | 319° |
| 2026-04-28 20:52 | 32.01110 | 73.96413 | 28722 ft | 483 kts | 320° |
| 2026-04-28 20:53 | 32.09064 | 73.89140 | 28714 ft | 481 kts | 320° |
| 2026-04-28 20:53 | 32.14313 | 73.84330 | 28720 ft | 480 kts | 320° |
| 2026-04-28 20:54 | 32.19587 | 73.79490 | 28729 ft | 480 kts | 320° |
| 2026-04-28 20:54 | 32.24864 | 73.74640 | 28723 ft | 480 kts | 320° |
| 2026-04-28 20:55 | 32.30136 | 73.69787 | 28725 ft | 480 kts | 320° |
| 2026-04-28 20:55 | 32.35410 | 73.64925 | 28739 ft | 481 kts | 320° |
| 2026-04-28 20:56 | 32.40685 | 73.60055 | 28745 ft | 480 kts | 320° |
| 2026-04-28 20:56 | 32.45947 | 73.55190 | 28734 ft | 480 kts | 320° |
| 2026-04-28 20:57 | 32.51197 | 73.50328 | 28747 ft | 479 kts | 320° |
| 2026-04-28 20:57 | 32.56411 | 73.45492 | 28741 ft | 479 kts | 320° |
| 2026-04-28 20:58 | 32.61657 | 73.40619 | 28749 ft | 478 kts | 319° |
| 2026-04-28 20:58 | 32.66895 | 73.35744 | 28749 ft | 478 kts | 319° |
| 2026-04-28 20:59 | 32.72128 | 73.30873 | 28754 ft | 477 kts | 320° |
| 2026-04-28 20:59 | 32.77984 | 73.27050 | 28773 ft | 485 kts | 336° |
| 2026-04-28 21:00 | 32.84567 | 73.25104 | 28772 ft | 492 kts | 348° |
| 2026-04-28 21:00 | 32.91375 | 73.24077 | 28769 ft | 494 kts | 349° |
| 2026-04-28 21:01 | 32.98192 | 73.23022 | 28785 ft | 494 kts | 348° |
| 2026-04-28 21:01 | 33.05004 | 73.21897 | 28779 ft | 495 kts | 348° |
| 2026-04-28 21:02 | 33.11776 | 73.20759 | 28786 ft | 494 kts | 348° |
| 2026-04-28 21:02 | 33.18583 | 73.19620 | 28781 ft | 494 kts | 348° |
| 2026-04-28 21:03 | 33.25383 | 73.18484 | 28780 ft | 493 kts | 348° |
| 2026-04-28 21:03 | 33.32178 | 73.17346 | 28792 ft | 493 kts | 349° |
| 2026-04-28 21:04 | 33.38982 | 73.16206 | 28776 ft | 494 kts | 349° |
| 2026-04-28 21:04 | 33.45799 | 73.15066 | 28786 ft | 495 kts | 349° |
| 2026-04-28 21:05 | 33.52588 | 73.13937 | 28792 ft | 496 kts | 349° |
| 2026-04-28 21:05 | 33.59475 | 73.13249 | 28787 ft | 499 kts | 0° |
| 2026-04-28 21:06 | 33.66399 | 73.14194 | 28794 ft | 504 kts | 12° |
| 2026-04-28 21:06 | 33.73202 | 73.16250 | 28809 ft | 505 kts | 13° |
| 2026-04-28 21:07 | 33.80029 | 73.18386 | 28819 ft | 507 kts | 13° |
| 2026-04-28 21:07 | 33.86878 | 73.20482 | 28819 ft | 508 kts | 13° |
| 2026-04-28 21:08 | 33.93703 | 73.22541 | 28830 ft | 509 kts | 13° |
| 2026-04-28 21:08 | 34.00557 | 73.24604 | 28848 ft | 509 kts | 13° |
| 2026-04-28 21:09 | 34.07428 | 73.26677 | 28855 ft | 509 kts | 13° |
| 2026-04-28 21:09 | 34.14302 | 73.28757 | 28856 ft | 509 kts | 13° |
| 2026-04-28 21:10 | 34.21180 | 73.30843 | 28866 ft | 510 kts | 13° |
| 2026-04-28 21:10 | 34.28074 | 73.32937 | 28865 ft | 511 kts | 13° |
| 2026-04-28 21:11 | 34.34978 | 73.35037 | 28870 ft | 512 kts | 13° |
| 2026-04-28 21:11 | 34.41881 | 73.37141 | 28899 ft | 511 kts | 13° |
| 2026-04-28 21:12 | 34.48733 | 73.39232 | 28906 ft | 510 kts | 13° |
| 2026-04-28 21:12 | 34.55623 | 73.41339 | 28933 ft | 510 kts | 13° |
| 2026-04-28 21:13 | 34.62508 | 73.43449 | 28961 ft | 510 kts | 13° |
| 2026-04-28 21:13 | 34.69382 | 73.45557 | 28957 ft | 509 kts | 13° |
| 2026-04-28 21:14 | 34.76182 | 73.47985 | 28980 ft | 510 kts | 21° |
| 2026-04-28 21:14 | 34.82423 | 73.52034 | 29032 ft | 512 kts | 34° |
| 2026-04-28 21:15 | 34.88071 | 73.57315 | 29051 ft | 512 kts | 37° |
| 2026-04-28 21:15 | 34.93673 | 73.62708 | 29053 ft | 513 kts | 37° |
| 2026-04-28 21:16 | 34.99302 | 73.68078 | 29056 ft | 514 kts | 37° |
| 2026-04-28 21:16 | 35.04956 | 73.73425 | 29040 ft | 514 kts | 36° |
| 2026-04-28 21:17 | 35.10619 | 73.78784 | 29045 ft | 515 kts | 36° |
| 2026-04-28 21:17 | 35.16284 | 73.84155 | 29020 ft | 515 kts | 37° |
| 2026-04-28 21:18 | 35.21932 | 73.89522 | 29019 ft | 513 kts | 37° |
| 2026-04-28 21:18 | 35.27558 | 73.94882 | 28997 ft | 511 kts | 37° |
| 2026-04-28 21:19 | 35.33126 | 74.00194 | 29010 ft | 509 kts | 37° |
| 2026-04-28 21:19 | 35.38712 | 74.05506 | 29007 ft | 507 kts | 35° |
| 2026-04-28 21:20 | 35.44748 | 74.09942 | 29012 ft | 505 kts | 24° |
| 2026-04-28 21:20 | 35.51244 | 74.13209 | 29005 ft | 505 kts | 20° |
| 2026-04-28 21:21 | 35.57796 | 74.16381 | 29005 ft | 506 kts | 21° |
| 2026-04-28 21:21 | 35.64346 | 74.19621 | 29012 ft | 507 kts | 21° |
| 2026-04-28 21:22 | 35.70854 | 74.22879 | 29011 ft | 509 kts | 22° |
| 2026-04-28 21:22 | 35.76353 | 74.25637 | 29011 ft | 509 kts | 22° |
| 2026-04-28 21:23 | 35.83974 | 74.29462 | 29024 ft | 509 kts | 22° |
| 2026-04-28 21:23 | 35.90451 | 74.32991 | 28993 ft | 508 kts | 28° |
| 2026-04-28 21:24 | 35.96333 | 74.37795 | 29019 ft | 508 kts | 39° |
| 2026-04-28 21:24 | 36.01729 | 74.43424 | 29029 ft | 509 kts | 40° |
| 2026-04-28 21:25 | 36.07127 | 74.49111 | 29025 ft | 510 kts | 40° |
| 2026-04-28 21:25 | 36.12518 | 74.54741 | 29043 ft | 511 kts | 40° |
| 2026-04-28 21:26 | 36.17949 | 74.60389 | 29052 ft | 510 kts | 40° |
| 2026-04-28 21:26 | 36.23424 | 74.66087 | 29086 ft | 510 kts | 40° |
| 2026-04-28 21:27 | 36.28820 | 74.71713 | 29082 ft | 509 kts | 40° |
| 2026-04-28 21:27 | 36.34231 | 74.77375 | 29087 ft | 508 kts | 40° |
| 2026-04-28 21:28 | 36.39630 | 74.83024 | 29088 ft | 507 kts | 40° |
| 2026-04-28 21:28 | 36.45016 | 74.88676 | 29087 ft | 507 kts | 40° |
| 2026-04-28 21:29 | 36.50400 | 74.94339 | 29092 ft | 507 kts | 40° |
| 2026-04-28 21:29 | 36.55751 | 74.99979 | 29065 ft | 508 kts | 40° |
| 2026-04-28 21:30 | 36.61086 | 75.05607 | 29087 ft | 509 kts | 40° |
| 2026-04-28 21:30 | 36.66495 | 75.11326 | 29089 ft | 510 kts | 40° |
| 2026-04-28 21:31 | 36.71913 | 75.17067 | 29083 ft | 512 kts | 40° |
| 2026-04-28 21:31 | 36.77341 | 75.22831 | 29076 ft | 513 kts | 40° |
| 2026-04-28 21:32 | 36.82741 | 75.28572 | 29067 ft | 513 kts | 40° |
| 2026-04-28 21:32 | 36.88170 | 75.34358 | 29062 ft | 514 kts | 40° |
| 2026-04-28 21:33 | 36.93597 | 75.40157 | 29065 ft | 513 kts | 41° |
| 2026-04-28 21:33 | 36.98712 | 75.46371 | 29078 ft | 513 kts | 45° |
| 2026-04-28 21:34 | 37.03688 | 75.52763 | 29094 ft | 514 kts | 46° |
| 2026-04-28 21:34 | 37.08694 | 75.59195 | 29098 ft | 515 kts | 45° |
| 2026-04-28 21:35 | 37.13717 | 75.65615 | 29088 ft | 516 kts | 45° |
| 2026-04-28 21:35 | 37.18747 | 75.72034 | 29081 ft | 516 kts | 45° |
| 2026-04-28 21:36 | 37.23774 | 75.78468 | 29097 ft | 515 kts | 45° |
| 2026-04-28 21:36 | 37.28782 | 75.84898 | 29125 ft | 515 kts | 45° |
| 2026-04-28 21:37 | 37.33771 | 75.91306 | 29115 ft | 516 kts | 45° |
| 2026-04-28 21:37 | 37.38794 | 75.97769 | 29113 ft | 517 kts | 46° |
| 2026-04-28 21:38 | 37.43766 | 76.04192 | 29088 ft | 518 kts | 46° |
| 2026-04-28 21:38 | 37.47972 | 76.09638 | 29070 ft | 518 kts | 46° |
| 2026-04-28 21:39 | 37.52962 | 76.16099 | 29062 ft | 517 kts | 45° |
| 2026-04-28 21:39 | 37.57976 | 76.22607 | 29008 ft | 517 kts | 46° |
| 2026-04-28 21:40 | 37.62987 | 76.29128 | 29043 ft | 519 kts | 46° |
| 2026-04-28 21:40 | 37.68014 | 76.35675 | 29022 ft | 520 kts | 46° |
| 2026-04-28 21:41 | 37.73043 | 76.42252 | 29015 ft | 521 kts | 46° |
| 2026-04-28 21:41 | 37.78080 | 76.48842 | 28995 ft | 522 kts | 45° |
| 2026-04-28 21:42 | 37.83120 | 76.55450 | 28953 ft | 522 kts | 45° |
| 2026-04-28 21:42 | 37.88158 | 76.62073 | 28977 ft | 521 kts | 45° |
| 2026-04-28 21:43 | 37.93176 | 76.68680 | 28930 ft | 520 kts | 46° |
| 2026-04-28 21:43 | 37.98186 | 76.75298 | 28930 ft | 520 kts | 46° |
| 2026-04-28 21:44 | 38.03190 | 76.81920 | 28902 ft | 519 kts | 46° |
| 2026-04-28 21:44 | 38.08183 | 76.88537 | 28897 ft | 519 kts | 46° |
| 2026-04-28 21:45 | 38.13167 | 76.95160 | 28873 ft | 519 kts | 46° |
| 2026-04-28 21:45 | 38.18088 | 77.01713 | 28879 ft | 518 kts | 46° |
| 2026-04-28 21:46 | 38.23059 | 77.08278 | 28876 ft | 518 kts | 44° |
| 2026-04-28 21:46 | 38.28292 | 77.14573 | 28871 ft | 517 kts | 42° |
| 2026-04-28 21:47 | 38.33579 | 77.20796 | 28872 ft | 518 kts | 42° |
| 2026-04-28 21:47 | 38.38840 | 77.27069 | 28862 ft | 518 kts | 43° |
| 2026-04-28 21:48 | 38.44081 | 77.33369 | 28876 ft | 518 kts | 43° |
| 2026-04-28 21:48 | 38.49457 | 77.39439 | 28849 ft | 513 kts | 30° |
| 2026-04-28 21:49 | 38.52682 | 77.41309 | 28866 ft | 510 kts | 13° |
| 2026-04-28 21:49 | 38.56169 | 77.41937 | 28887 ft | 506 kts | 357° |
| 2026-04-28 21:49 | 38.59648 | 77.41391 | 28868 ft | 503 kts | 343° |
| 2026-04-28 21:49 | 38.62930 | 77.39894 | 28884 ft | 501 kts | 333° |
| 2026-04-28 21:50 | 38.65950 | 77.37687 | 28866 ft | 499 kts | 321° |
| 2026-04-28 21:50 | 38.68399 | 77.34689 | 28886 ft | 491 kts | 308° |
| 2026-04-28 21:50 | 38.72762 | 77.27929 | 28889 ft | 494 kts | 307° |
| 2026-04-28 21:51 | 38.77133 | 77.21105 | 28890 ft | 497 kts | 307° |
| 2026-04-28 21:51 | 38.81593 | 77.14307 | 28890 ft | 499 kts | 308° |
| 2026-04-28 21:52 | 38.86092 | 77.07527 | 28907 ft | 499 kts | 308° |
| 2026-04-28 21:52 | 38.90583 | 77.00762 | 28902 ft | 497 kts | 308° |
| 2026-04-28 21:53 | 38.95048 | 76.94011 | 28898 ft | 494 kts | 308° |
| 2026-04-28 21:53 | 38.99457 | 76.87324 | 28910 ft | 493 kts | 308° |
| 2026-04-28 21:54 | 39.03905 | 76.80561 | 28914 ft | 492 kts | 308° |
| 2026-04-28 21:54 | 39.08287 | 76.73885 | 28933 ft | 490 kts | 308° |
| 2026-04-28 21:55 | 39.12678 | 76.67182 | 28923 ft | 489 kts | 308° |
| 2026-04-28 21:55 | 39.17055 | 76.60487 | 28934 ft | 488 kts | 307° |
| 2026-04-28 21:56 | 39.21421 | 76.53793 | 28933 ft | 487 kts | 307° |
| 2026-04-28 21:56 | 39.25783 | 76.47092 | 28952 ft | 487 kts | 308° |
| 2026-04-28 21:57 | 39.30138 | 76.40387 | 28941 ft | 487 kts | 307° |
| 2026-04-28 21:57 | 39.34489 | 76.33674 | 28957 ft | 487 kts | 307° |
| 2026-04-28 21:58 | 39.38838 | 76.26949 | 28973 ft | 487 kts | 307° |
| 2026-04-28 21:58 | 39.43183 | 76.20217 | 29004 ft | 487 kts | 307° |
| 2026-04-28 21:59 | 39.47519 | 76.13484 | 28988 ft | 486 kts | 307° |
| 2026-04-28 22:00 | 39.54494 | 76.04112 | 28994 ft | 489 kts | 326° |
| 2026-04-28 22:00 | 39.57565 | 76.02181 | 29002 ft | 494 kts | 338° |
| 2026-04-28 22:00 | 39.60904 | 76.01084 | 28987 ft | 497 kts | 350° |
| 2026-04-28 22:01 | 39.67810 | 76.00155 | 29002 ft | 501 kts | 352° |
| 2026-04-28 22:01 | 39.74701 | 75.99227 | 29005 ft | 504 kts | 351° |
| 2026-04-28 22:02 | 39.81656 | 75.98199 | 29016 ft | 507 kts | 351° |
| 2026-04-28 22:02 | 39.88664 | 75.97123 | 29038 ft | 507 kts | 350° |
| 2026-04-28 22:03 | 39.95669 | 75.96043 | 29033 ft | 506 kts | 350° |
| 2026-04-28 22:03 | 40.02642 | 75.94970 | 29059 ft | 504 kts | 350° |
| 2026-04-28 22:04 | 40.09595 | 75.93901 | 29091 ft | 502 kts | 350° |
| 2026-04-28 22:04 | 40.16489 | 75.92838 | 29084 ft | 501 kts | 350° |
| 2026-04-28 22:05 | 40.23402 | 75.91769 | 29137 ft | 499 kts | 350° |
| 2026-04-28 22:05 | 40.30306 | 75.90699 | 29154 ft | 500 kts | 350° |
| 2026-04-28 22:06 | 40.37244 | 75.89629 | 29147 ft | 502 kts | 350° |
| 2026-04-28 22:06 | 40.44193 | 75.88559 | 29170 ft | 503 kts | 350° |
| 2026-04-28 22:07 | 40.51096 | 75.87493 | 29190 ft | 503 kts | 350° |
| 2026-04-28 22:07 | 40.58046 | 75.86416 | 29186 ft | 501 kts | 350° |
| 2026-04-28 22:08 | 40.64968 | 75.85342 | 29182 ft | 500 kts | 349° |
| 2026-04-28 22:08 | 40.71832 | 75.84274 | 29190 ft | 498 kts | 349° |
| 2026-04-28 22:09 | 40.78728 | 75.83199 | 29167 ft | 497 kts | 349° |
| 2026-04-28 22:09 | 40.85594 | 75.82132 | 29163 ft | 496 kts | 349° |
| 2026-04-28 22:10 | 40.92456 | 75.81071 | 29172 ft | 497 kts | 349° |
| 2026-04-28 22:10 | 40.99296 | 75.80009 | 29142 ft | 497 kts | 349° |
| 2026-04-28 22:11 | 41.06169 | 75.78939 | 29128 ft | 498 kts | 349° |
| 2026-04-28 22:11 | 41.13048 | 75.77867 | 29148 ft | 498 kts | 349° |
| 2026-04-28 22:12 | 41.19936 | 75.76791 | 29129 ft | 498 kts | 349° |
| 2026-04-28 22:12 | 41.26832 | 75.75710 | 29116 ft | 498 kts | 349° |
| 2026-04-28 22:13 | 41.33682 | 75.74635 | 29102 ft | 498 kts | 350° |
| 2026-04-28 22:13 | 41.40614 | 75.73848 | 29085 ft | 502 kts | 358° |
| 2026-04-28 22:14 | 41.47571 | 75.74935 | 29097 ft | 507 kts | 11° |
| 2026-04-28 22:14 | 41.54365 | 75.77558 | 29104 ft | 509 kts | 14° |
| 2026-04-28 22:15 | 41.61133 | 75.80325 | 29100 ft | 508 kts | 14° |
| 2026-04-28 22:15 | 41.67876 | 75.83029 | 29100 ft | 508 kts | 13° |
| 2026-04-28 22:16 | 41.74657 | 75.85707 | 29102 ft | 508 kts | 14° |
| 2026-04-28 22:16 | 41.81443 | 75.88379 | 29096 ft | 508 kts | 14° |
| 2026-04-28 22:17 | 41.88222 | 75.91057 | 29089 ft | 508 kts | 14° |
| 2026-04-28 22:17 | 41.95004 | 75.93746 | 29091 ft | 507 kts | 14° |
| 2026-04-28 22:18 | 42.01777 | 75.96440 | 29088 ft | 507 kts | 14° |
| 2026-04-28 22:18 | 42.08498 | 75.99119 | 29084 ft | 507 kts | 14° |
| 2026-04-28 22:19 | 42.15248 | 76.01813 | 29092 ft | 506 kts | 14° |
| 2026-04-28 22:19 | 42.21995 | 76.04514 | 29082 ft | 505 kts | 14° |
| 2026-04-28 22:20 | 42.28733 | 76.07216 | 29072 ft | 504 kts | 14° |
| 2026-04-28 22:20 | 42.35452 | 76.09917 | 29074 ft | 503 kts | 14° |
| 2026-04-28 22:21 | 42.42047 | 76.13071 | 29073 ft | 505 kts | 22° |
| 2026-04-28 22:21 | 42.48159 | 76.17825 | 29071 ft | 510 kts | 33° |
| 2026-04-28 22:22 | 42.53837 | 76.23593 | 29072 ft | 510 kts | 35° |
| 2026-04-28 22:22 | 42.59535 | 76.29353 | 29095 ft | 511 kts | 34° |
| 2026-04-28 22:23 | 42.65259 | 76.35065 | 29117 ft | 510 kts | 34° |
| 2026-04-28 22:23 | 42.70969 | 76.40810 | 29131 ft | 508 kts | 34° |
| 2026-04-28 22:24 | 42.76614 | 76.46510 | 29109 ft | 508 kts | 34° |
| 2026-04-28 22:24 | 42.82285 | 76.52258 | 29116 ft | 508 kts | 34° |
| 2026-04-28 22:25 | 42.87953 | 76.58001 | 29090 ft | 506 kts | 34° |
| 2026-04-28 22:25 | 42.93609 | 76.63742 | 29063 ft | 505 kts | 34° |
| 2026-04-28 22:26 | 42.98285 | 76.68497 | 29055 ft | 504 kts | 34° |
| 2026-04-28 22:26 | 43.03912 | 76.74223 | 29073 ft | 504 kts | 34° |
| 2026-04-28 22:27 | 43.09543 | 76.79970 | 29063 ft | 504 kts | 34° |
| 2026-04-28 22:27 | 43.15156 | 76.85720 | 29053 ft | 503 kts | 34° |
| 2026-04-28 22:28 | 43.20762 | 76.91465 | 29049 ft | 502 kts | 34° |
| 2026-04-28 22:28 | 43.26366 | 76.97076 | 29049 ft | 501 kts | 33° |
| 2026-04-28 22:29 | 43.31936 | 77.02616 | 29056 ft | 501 kts | 33° |
| 2026-04-28 22:29 | 43.37272 | 77.08829 | 29048 ft | 505 kts | 43° |
| 2026-04-28 22:30 | 43.41702 | 77.16362 | 29047 ft | 509 kts | 53° |
| 2026-04-28 22:30 | 43.45571 | 77.24532 | 29056 ft | 510 kts | 54° |
| 2026-04-28 22:31 | 43.49435 | 77.32665 | 29043 ft | 511 kts | 53° |
| 2026-04-28 22:31 | 43.53370 | 77.40832 | 29051 ft | 511 kts | 53° |
| 2026-04-28 22:32 | 43.57657 | 77.48576 | 29031 ft | 504 kts | 39° |
| 2026-04-28 22:32 | 43.63300 | 77.54124 | 29026 ft | 495 kts | 22° |
| 2026-04-28 22:33 | 43.69620 | 77.57801 | 29025 ft | 493 kts | 18° |
| 2026-04-28 22:33 | 43.75965 | 77.61430 | 29058 ft | 494 kts | 18° |
| 2026-04-28 22:34 | 43.82304 | 77.65161 | 29040 ft | 495 kts | 19° |
| 2026-04-28 22:34 | 43.88627 | 77.68930 | 29035 ft | 494 kts | 19° |
| 2026-04-28 22:35 | 43.94930 | 77.72695 | 29044 ft | 493 kts | 19° |
| 2026-04-28 22:35 | 44.01215 | 77.76453 | 29048 ft | 491 kts | 19° |
| 2026-04-28 22:36 | 44.07494 | 77.80214 | 29049 ft | 491 kts | 19° |
| 2026-04-28 22:36 | 44.13718 | 77.83955 | 29068 ft | 490 kts | 19° |
| 2026-04-28 22:37 | 44.19973 | 77.87737 | 29069 ft | 490 kts | 18° |
| 2026-04-28 22:37 | 44.26228 | 77.91527 | 29080 ft | 488 kts | 18° |
| 2026-04-28 22:38 | 44.32463 | 77.95295 | 29083 ft | 488 kts | 18° |
| 2026-04-28 22:38 | 44.38704 | 77.99056 | 29108 ft | 489 kts | 18° |
| 2026-04-28 22:39 | 44.44836 | 78.02762 | 29095 ft | 489 kts | 18° |
| 2026-04-28 22:39 | 44.51085 | 78.06553 | 29096 ft | 490 kts | 18° |
| 2026-04-28 22:40 | 44.57343 | 78.10358 | 29096 ft | 490 kts | 18° |
| 2026-04-28 22:40 | 44.63607 | 78.14171 | 29098 ft | 490 kts | 18° |
| 2026-04-28 22:41 | 44.69875 | 78.17983 | 29099 ft | 490 kts | 18° |
| 2026-04-28 22:41 | 44.76135 | 78.21802 | 29097 ft | 490 kts | 19° |
| 2026-04-28 22:42 | 44.82396 | 78.25631 | 29106 ft | 490 kts | 19° |
| 2026-04-28 22:42 | 44.88609 | 78.29440 | 29100 ft | 490 kts | 19° |
| 2026-04-28 22:43 | 44.94856 | 78.33280 | 29098 ft | 489 kts | 19° |
| 2026-04-28 22:43 | 45.01090 | 78.37121 | 29112 ft | 489 kts | 19° |
| 2026-04-28 22:44 | 45.07320 | 78.40969 | 29099 ft | 488 kts | 19° |
| 2026-04-28 22:44 | 45.13536 | 78.44890 | 29094 ft | 490 kts | 21° |
| 2026-04-28 22:45 | 45.19662 | 78.49161 | 29132 ft | 490 kts | 22° |
| 2026-04-28 22:45 | 45.25770 | 78.53488 | 29102 ft | 490 kts | 22° |
| 2026-04-28 22:46 | 45.31850 | 78.57749 | 29105 ft | 490 kts | 22° |
| 2026-04-28 22:46 | 45.37962 | 78.62011 | 29106 ft | 489 kts | 22° |
| 2026-04-28 22:47 | 45.44076 | 78.66283 | 29113 ft | 489 kts | 22° |
| 2026-04-28 22:47 | 45.50177 | 78.70563 | 29115 ft | 489 kts | 23° |
| 2026-04-28 22:48 | 45.56282 | 78.74852 | 29105 ft | 489 kts | 23° |
| 2026-04-28 22:48 | 45.62338 | 78.79118 | 29126 ft | 488 kts | 23° |
| 2026-04-28 22:49 | 45.68433 | 78.83407 | 29111 ft | 487 kts | 23° |
| 2026-04-28 22:49 | 45.74515 | 78.87683 | 29111 ft | 486 kts | 23° |
| 2026-04-28 22:50 | 45.80587 | 78.91963 | 29116 ft | 486 kts | 23° |
| 2026-04-28 22:50 | 45.86652 | 78.96249 | 29116 ft | 486 kts | 24° |
| 2026-04-28 22:51 | 45.92643 | 79.00497 | 29109 ft | 486 kts | 24° |
| 2026-04-28 22:51 | 45.98705 | 79.04805 | 29115 ft | 486 kts | 24° |
| 2026-04-28 22:52 | 46.04721 | 79.09091 | 29118 ft | 486 kts | 24° |
| 2026-04-28 22:52 | 46.10776 | 79.13415 | 29120 ft | 486 kts | 24° |
| 2026-04-28 22:53 | 46.16831 | 79.17751 | 29125 ft | 485 kts | 25° |
| 2026-04-28 22:53 | 46.22879 | 79.22094 | 29137 ft | 485 kts | 25° |
| 2026-04-28 22:54 | 46.28922 | 79.26436 | 29123 ft | 485 kts | 26° |
| 2026-04-28 22:54 | 46.34962 | 79.30754 | 29140 ft | 484 kts | 25° |
| 2026-04-28 22:55 | 46.41032 | 79.34976 | 29133 ft | 483 kts | 25° |
| 2026-04-28 22:55 | 46.47090 | 79.39184 | 29141 ft | 482 kts | 25° |
| 2026-04-28 22:56 | 46.53093 | 79.43383 | 29148 ft | 480 kts | 25° |
| 2026-04-28 22:56 | 46.59100 | 79.47604 | 29137 ft | 479 kts | 26° |
| 2026-04-28 22:57 | 46.65095 | 79.51830 | 29142 ft | 479 kts | 26° |
| 2026-04-28 22:57 | 46.71102 | 79.56074 | 29160 ft | 481 kts | 26° |
| 2026-04-28 22:58 | 46.77132 | 79.60344 | 29165 ft | 482 kts | 26° |
| 2026-04-28 22:58 | 46.83183 | 79.64639 | 29158 ft | 483 kts | 26° |
| 2026-04-28 22:59 | 46.89233 | 79.68945 | 29154 ft | 483 kts | 26° |
| 2026-04-28 22:59 | 46.95275 | 79.73256 | 29181 ft | 482 kts | 26° |
| 2026-04-28 23:00 | 47.01296 | 79.77563 | 29175 ft | 481 kts | 26° |
| 2026-04-28 23:00 | 47.07270 | 79.81846 | 29166 ft | 480 kts | 26° |
| 2026-04-28 23:01 | 47.13271 | 79.86161 | 29184 ft | 480 kts | 26° |
| 2026-04-28 23:01 | 47.19252 | 79.90488 | 29182 ft | 478 kts | 26° |
| 2026-04-28 23:02 | 47.25212 | 79.94827 | 29186 ft | 477 kts | 26° |
| 2026-04-28 23:02 | 47.31162 | 79.99168 | 29189 ft | 477 kts | 26° |
| 2026-04-28 23:03 | 47.37051 | 80.03474 | 29212 ft | 478 kts | 26° |
| 2026-04-28 23:03 | 47.42975 | 80.07815 | 29190 ft | 470 kts | 26° |
| 2026-04-28 23:04 | 47.48789 | 80.12088 | 29222 ft | 471 kts | 26° |
| 2026-04-28 23:04 | 47.57632 | 80.18604 | 29214 ft | 474 kts | 26° |
| 2026-04-28 23:05 | 47.63542 | 80.22974 | 29229 ft | 475 kts | 26° |
| 2026-04-28 23:05 | 47.69460 | 80.27361 | 29247 ft | 476 kts | 26° |
| 2026-04-28 23:06 | 47.75396 | 80.31769 | 29253 ft | 478 kts | 25° |
| 2026-04-28 23:06 | 47.81348 | 80.36207 | 29260 ft | 480 kts | 25° |
| 2026-04-28 23:07 | 47.87327 | 80.40674 | 29273 ft | 481 kts | 25° |
| 2026-04-28 23:07 | 47.93298 | 80.45183 | 29287 ft | 481 kts | 27° |
| 2026-04-28 23:08 | 47.99023 | 80.50353 | 29280 ft | 481 kts | 31° |
| 2026-04-28 23:08 | 48.04684 | 80.55668 | 29314 ft | 481 kts | 31° |
| 2026-04-28 23:09 | 48.10301 | 80.60933 | 29321 ft | 477 kts | 30° |
| 2026-04-28 23:09 | 48.15887 | 80.66150 | 29306 ft | 471 kts | 30° |
| 2026-04-28 23:10 | 48.21459 | 80.71354 | 29317 ft | 473 kts | 30° |
| 2026-04-28 23:10 | 48.27045 | 80.76583 | 29322 ft | 474 kts | 31° |
| 2026-04-28 23:11 | 48.32634 | 80.81831 | 29327 ft | 474 kts | 31° |
| 2026-04-28 23:11 | 48.38238 | 80.87108 | 29329 ft | 474 kts | 31° |
| 2026-04-28 23:12 | 48.43830 | 80.92387 | 29330 ft | 474 kts | 31° |
| 2026-04-28 23:12 | 48.49416 | 80.97675 | 29335 ft | 474 kts | 31° |
| 2026-04-28 23:13 | 48.54903 | 81.02883 | 29327 ft | 474 kts | 31° |
| 2026-04-28 23:13 | 48.60486 | 81.08196 | 29338 ft | 474 kts | 31° |
| 2026-04-28 23:14 | 48.66061 | 81.13515 | 29335 ft | 474 kts | 31° |
| 2026-04-28 23:14 | 48.71636 | 81.18848 | 29336 ft | 474 kts | 31° |
| 2026-04-28 23:15 | 48.77208 | 81.24192 | 29348 ft | 474 kts | 31° |
| 2026-04-28 23:15 | 48.82743 | 81.29516 | 29338 ft | 472 kts | 31° |
| 2026-04-28 23:16 | 48.88277 | 81.34853 | 29340 ft | 471 kts | 31° |
| 2026-04-28 23:16 | 48.92870 | 81.39292 | 29335 ft | 470 kts | 31° |
| 2026-04-28 23:17 | 48.98383 | 81.44634 | 29338 ft | 469 kts | 31° |
| 2026-04-28 23:17 | 49.03890 | 81.49984 | 29339 ft | 469 kts | 31° |
| 2026-04-28 23:18 | 49.09396 | 81.55348 | 29334 ft | 470 kts | 31° |
| 2026-04-28 23:18 | 49.14910 | 81.60733 | 29341 ft | 470 kts | 31° |
| 2026-04-28 23:19 | 49.20404 | 81.66115 | 29326 ft | 468 kts | 31° |
| 2026-04-28 23:19 | 49.25882 | 81.71496 | 29323 ft | 467 kts | 31° |
| 2026-04-28 23:20 | 49.31311 | 81.76842 | 29327 ft | 466 kts | 31° |
| 2026-04-28 23:20 | 49.36765 | 81.82227 | 29321 ft | 466 kts | 31° |
| 2026-04-28 23:21 | 49.42220 | 81.87626 | 29323 ft | 467 kts | 31° |
| 2026-04-28 23:21 | 49.47657 | 81.93097 | 29347 ft | 467 kts | 32° |
| 2026-04-28 23:22 | 49.53053 | 81.98650 | 29322 ft | 466 kts | 31° |
| 2026-04-28 23:22 | 49.58364 | 82.04129 | 29314 ft | 464 kts | 31° |
| 2026-04-28 23:23 | 49.63719 | 82.09652 | 29307 ft | 463 kts | 31° |
| 2026-04-28 23:23 | 49.69073 | 82.15182 | 29312 ft | 462 kts | 31° |
| 2026-04-28 23:24 | 49.74418 | 82.20718 | 29305 ft | 462 kts | 31° |
| 2026-04-28 23:24 | 49.79729 | 82.26233 | 29303 ft | 463 kts | 32° |
| 2026-04-28 23:25 | 49.85084 | 82.31810 | 29307 ft | 463 kts | 31° |
| 2026-04-28 23:25 | 49.90423 | 82.37386 | 29297 ft | 461 kts | 31° |
| 2026-04-28 23:26 | 49.95736 | 82.42951 | 29318 ft | 460 kts | 32° |
| 2026-04-28 23:26 | 50.01047 | 82.48526 | 29318 ft | 460 kts | 32° |
| 2026-04-28 23:27 | 50.06330 | 82.54138 | 29306 ft | 460 kts | 32° |
| 2026-04-28 23:27 | 50.11573 | 82.59872 | 29313 ft | 461 kts | 33° |
| 2026-04-28 23:28 | 50.16781 | 82.65596 | 29353 ft | 461 kts | 32° |
| 2026-04-28 23:28 | 50.22006 | 82.71337 | 29329 ft | 456 kts | 32° |
| 2026-04-28 23:29 | 50.27195 | 82.77044 | 29319 ft | 455 kts | 32° |
| 2026-04-28 23:29 | 50.32375 | 82.82754 | 29332 ft | 455 kts | 32° |
| 2026-04-28 23:30 | 50.37560 | 82.88485 | 29338 ft | 456 kts | 32° |
| 2026-04-28 23:30 | 50.42741 | 82.94229 | 29347 ft | 457 kts | 32° |
| 2026-04-28 23:31 | 50.47928 | 82.99996 | 29352 ft | 457 kts | 32° |
| 2026-04-28 23:31 | 50.53013 | 83.05667 | 29355 ft | 455 kts | 32° |
| 2026-04-28 23:32 | 50.58140 | 83.11397 | 29345 ft | 451 kts | 32° |
| 2026-04-28 23:32 | 50.63251 | 83.17137 | 29364 ft | 452 kts | 33° |
| 2026-04-28 23:33 | 50.68328 | 83.22997 | 29364 ft | 453 kts | 33° |
| 2026-04-28 23:33 | 50.73407 | 83.28909 | 29351 ft | 454 kts | 33° |
| 2026-04-28 23:34 | 50.78502 | 83.34839 | 29367 ft | 455 kts | 33° |
| 2026-04-28 23:34 | 50.83599 | 83.40780 | 29371 ft | 455 kts | 33° |
| 2026-04-28 23:35 | 50.88669 | 83.46705 | 29370 ft | 449 kts | 33° |
| 2026-04-28 23:35 | 50.93697 | 83.52594 | 29371 ft | 450 kts | 33° |
| 2026-04-28 23:36 | 50.98754 | 83.58516 | 29399 ft | 452 kts | 33° |
| 2026-04-28 23:36 | 51.03826 | 83.64429 | 29394 ft | 453 kts | 33° |
| 2026-04-28 23:37 | 51.08877 | 83.70334 | 29399 ft | 454 kts | 33° |
| 2026-04-28 23:37 | 51.13949 | 83.76284 | 29416 ft | 452 kts | 33° |
| 2026-04-28 23:38 | 51.19006 | 83.82237 | 29442 ft | 451 kts | 33° |
| 2026-04-28 23:38 | 51.24042 | 83.88181 | 29434 ft | 449 kts | 33° |
| 2026-04-28 23:39 | 51.29057 | 83.94116 | 29437 ft | 448 kts | 33° |
| 2026-04-28 23:39 | 51.34022 | 84.00008 | 29438 ft | 447 kts | 33° |
| 2026-04-28 23:40 | 51.38950 | 84.05874 | 29456 ft | 448 kts | 33° |
| 2026-04-28 23:40 | 51.43960 | 84.11850 | 29457 ft | 448 kts | 33° |
| 2026-04-28 23:41 | 51.48962 | 84.17836 | 29448 ft | 449 kts | 33° |
| 2026-04-28 23:41 | 51.53967 | 84.23843 | 29502 ft | 448 kts | 33° |
| 2026-04-28 23:42 | 51.58915 | 84.29802 | 29478 ft | 442 kts | 33° |
| 2026-04-28 23:42 | 51.63839 | 84.35743 | 29471 ft | 443 kts | 33° |
| 2026-04-28 23:43 | 51.68766 | 84.41703 | 29477 ft | 443 kts | 33° |
| 2026-04-28 23:43 | 51.73671 | 84.47653 | 29478 ft | 444 kts | 33° |
| 2026-04-28 23:44 | 51.78628 | 84.53687 | 29477 ft | 445 kts | 33° |
| 2026-04-28 23:44 | 51.83552 | 84.59696 | 29482 ft | 446 kts | 33° |
| 2026-04-28 23:45 | 51.88496 | 84.65748 | 29476 ft | 446 kts | 33° |
| 2026-04-28 23:45 | 51.93437 | 84.71812 | 29471 ft | 446 kts | 33° |
| 2026-04-28 23:46 | 51.98381 | 84.77895 | 29460 ft | 446 kts | 33° |
| 2026-04-28 23:46 | 52.03317 | 84.83989 | 29470 ft | 446 kts | 33° |
| 2026-04-28 23:47 | 52.08251 | 84.90096 | 29470 ft | 446 kts | 34° |
| 2026-04-28 23:47 | 52.13177 | 84.96211 | 29461 ft | 445 kts | 34° |
| 2026-04-28 23:48 | 52.18042 | 85.02268 | 29469 ft | 445 kts | 34° |
| 2026-04-28 23:48 | 52.22961 | 85.08409 | 29495 ft | 445 kts | 34° |
| 2026-04-28 23:49 | 52.27846 | 85.14526 | 29469 ft | 443 kts | 34° |
| 2026-04-28 23:49 | 52.32723 | 85.20651 | 29462 ft | 441 kts | 34° |
| 2026-04-28 23:50 | 52.37581 | 85.26767 | 29469 ft | 440 kts | 34° |
| 2026-04-28 23:50 | 52.42432 | 85.32892 | 29465 ft | 440 kts | 34° |
| 2026-04-28 23:51 | 52.47303 | 85.38975 | 29464 ft | 439 kts | 31° |
| 2026-04-28 23:51 | 52.52409 | 85.44499 | 29471 ft | 440 kts | 30° |
| 2026-04-28 23:52 | 52.57525 | 85.49933 | 29467 ft | 441 kts | 30° |
| 2026-04-28 23:52 | 52.62646 | 85.55422 | 29474 ft | 437 kts | 30° |
| 2026-04-28 23:53 | 52.67727 | 85.60907 | 29468 ft | 436 kts | 30° |
| 2026-04-28 23:53 | 52.72804 | 85.66406 | 29471 ft | 437 kts | 30° |
| 2026-04-28 23:54 | 52.77891 | 85.71933 | 29468 ft | 438 kts | 30° |
| 2026-04-28 23:54 | 52.82966 | 85.77463 | 29481 ft | 439 kts | 30° |
| 2026-04-28 23:55 | 52.88075 | 85.83046 | 29480 ft | 440 kts | 30° |
| 2026-04-28 23:55 | 52.93188 | 85.88649 | 29481 ft | 441 kts | 30° |
| 2026-04-28 23:56 | 52.98301 | 85.94266 | 29474 ft | 441 kts | 30° |
| 2026-04-28 23:56 | 53.03379 | 85.99875 | 29479 ft | 436 kts | 30° |
| 2026-04-28 23:57 | 53.08375 | 86.05414 | 29479 ft | 436 kts | 30° |
| 2026-04-28 23:57 | 53.13428 | 86.11033 | 29479 ft | 437 kts | 30° |
| 2026-04-28 23:58 | 53.18484 | 86.16670 | 29485 ft | 437 kts | 30° |
| 2026-04-28 23:58 | 53.23515 | 86.22295 | 29487 ft | 438 kts | 30° |
| 2026-04-28 23:59 | 53.28579 | 86.27973 | 29478 ft | 439 kts | 30° |
| 2026-04-28 23:59 | 53.33659 | 86.33687 | 29472 ft | 439 kts | 31° |
| 2026-04-29 00:00 | 53.38734 | 86.39412 | 29472 ft | 440 kts | 31° |
| 2026-04-29 00:00 | 53.43778 | 86.45118 | 29482 ft | 435 kts | 31° |
| 2026-04-29 00:01 | 53.48796 | 86.50805 | 29480 ft | 436 kts | 31° |
| 2026-04-29 00:01 | 53.53839 | 86.56530 | 29486 ft | 438 kts | 31° |
| 2026-04-29 00:02 | 53.58899 | 86.62296 | 29486 ft | 440 kts | 31° |
| 2026-04-29 00:02 | 53.63961 | 86.68081 | 29490 ft | 440 kts | 31° |
| 2026-04-29 00:03 | 53.68999 | 86.73857 | 29501 ft | 439 kts | 31° |
| 2026-04-29 00:03 | 53.74046 | 86.79658 | 29506 ft | 438 kts | 31° |
| 2026-04-29 00:04 | 53.78171 | 86.84646 | 29506 ft | 441 kts | 36° |
| 2026-04-29 00:04 | 53.82486 | 86.92096 | 29506 ft | 444 kts | 45° |
| 2026-04-29 00:05 | 53.86003 | 87.00594 | 29514 ft | 447 kts | 52° |
| 2026-04-29 00:05 | 53.89290 | 87.09537 | 29509 ft | 447 kts | 52° |
| 2026-04-29 00:06 | 53.93125 | 87.19930 | 29492 ft | 447 kts | 52° |
| 2026-04-29 00:06 | 53.95885 | 87.27368 | 29502 ft | 448 kts | 52° |
| 2026-04-29 00:07 | 53.99214 | 87.36350 | 29502 ft | 449 kts | 52° |
| 2026-04-29 00:07 | 54.02527 | 87.45330 | 29509 ft | 446 kts | 52° |
| 2026-04-29 00:08 | 54.05814 | 87.54267 | 29501 ft | 445 kts | 52° |
| 2026-04-29 00:08 | 54.09086 | 87.63231 | 29508 ft | 445 kts | 52° |
| 2026-04-29 00:09 | 54.12352 | 87.72197 | 29528 ft | 445 kts | 52° |
| 2026-04-29 00:09 | 54.15632 | 87.81176 | 29520 ft | 447 kts | 52° |
| 2026-04-29 00:10 | 54.18916 | 87.90197 | 29567 ft | 448 kts | 52° |
| 2026-04-29 00:10 | 54.22191 | 87.99236 | 29532 ft | 447 kts | 52° |
| 2026-04-29 00:11 | 54.25396 | 88.08118 | 29524 ft | 446 kts | 52° |
| 2026-04-29 00:12 | 54.30259 | 88.21651 | 29538 ft | 445 kts | 52° |
| 2026-04-29 00:12 | 54.33497 | 88.30700 | 29564 ft | 445 kts | 53° |
| 2026-04-29 00:13 | 54.36730 | 88.39771 | 29549 ft | 446 kts | 52° |
| 2026-04-29 00:13 | 54.39960 | 88.48869 | 29559 ft | 446 kts | 53° |
| 2026-04-29 00:14 | 54.43177 | 88.57965 | 29575 ft | 446 kts | 53° |
| 2026-04-29 00:14 | 54.46372 | 88.67025 | 29564 ft | 446 kts | 53° |
| 2026-04-29 00:15 | 54.49583 | 88.76165 | 29572 ft | 447 kts | 53° |
| 2026-04-29 00:15 | 54.52793 | 88.85335 | 29574 ft | 447 kts | 53° |
| 2026-04-29 00:16 | 54.55994 | 88.94522 | 29622 ft | 447 kts | 53° |
| 2026-04-29 00:16 | 54.59130 | 89.03557 | 29584 ft | 448 kts | 53° |
| 2026-04-29 00:17 | 54.62319 | 89.12781 | 29572 ft | 446 kts | 53° |
| 2026-04-29 00:17 | 54.65493 | 89.21991 | 29557 ft | 445 kts | 53° |
| 2026-04-29 00:18 | 54.68656 | 89.31202 | 29566 ft | 445 kts | 53° |
| 2026-04-29 00:18 | 54.71786 | 89.40351 | 29544 ft | 445 kts | 53° |
| 2026-04-29 00:19 | 54.74934 | 89.49590 | 29541 ft | 445 kts | 53° |
| 2026-04-29 00:19 | 54.78081 | 89.58859 | 29527 ft | 446 kts | 53° |
| 2026-04-29 00:20 | 54.81226 | 89.68157 | 29529 ft | 447 kts | 53° |
| 2026-04-29 00:20 | 54.84368 | 89.77485 | 29529 ft | 448 kts | 53° |
| 2026-04-29 00:21 | 54.87495 | 89.86802 | 29521 ft | 449 kts | 53° |
| 2026-04-29 00:21 | 54.90627 | 89.96175 | 29527 ft | 448 kts | 54° |
| 2026-04-29 00:22 | 54.93705 | 90.05420 | 29524 ft | 449 kts | 54° |
| 2026-04-29 00:22 | 54.96828 | 90.14831 | 29527 ft | 448 kts | 54° |
| 2026-04-29 00:23 | 54.99934 | 90.24233 | 29505 ft | 448 kts | 54° |
| 2026-04-29 00:23 | 55.03012 | 90.33579 | 29506 ft | 448 kts | 54° |
| 2026-04-29 00:24 | 55.06105 | 90.43028 | 29503 ft | 448 kts | 54° |
| 2026-04-29 00:24 | 55.09182 | 90.52504 | 29499 ft | 449 kts | 54° |
| 2026-04-29 00:25 | 55.12255 | 90.62015 | 29502 ft | 449 kts | 54° |
| 2026-04-29 00:25 | 55.15325 | 90.71547 | 29488 ft | 449 kts | 54° |
| 2026-04-29 00:26 | 55.18365 | 90.81019 | 29487 ft | 449 kts | 54° |
| 2026-04-29 00:26 | 55.21416 | 90.90561 | 29492 ft | 448 kts | 54° |
| 2026-04-29 00:27 | 55.24450 | 91.00087 | 29485 ft | 448 kts | 54° |
| 2026-04-29 00:27 | 55.27456 | 91.09566 | 29483 ft | 449 kts | 54° |
| 2026-04-29 00:28 | 55.30471 | 91.19111 | 29487 ft | 450 kts | 55° |
| 2026-04-29 00:28 | 55.33501 | 91.28742 | 29481 ft | 451 kts | 55° |
| 2026-04-29 00:29 | 55.36526 | 91.38391 | 29471 ft | 451 kts | 55° |
| 2026-04-29 00:29 | 55.39574 | 91.48041 | 29469 ft | 448 kts | 52° |
| 2026-04-29 00:30 | 55.43428 | 91.56474 | 29473 ft | 439 kts | 41° |
| 2026-04-29 00:30 | 55.48028 | 91.63401 | 29474 ft | 433 kts | 32° |
| 2026-04-29 00:31 | 55.52914 | 91.69652 | 29471 ft | 435 kts | 32° |
| 2026-04-29 00:31 | 55.57833 | 91.75963 | 29467 ft | 437 kts | 32° |
| 2026-04-29 00:32 | 55.62735 | 91.82332 | 29454 ft | 438 kts | 33° |
| 2026-04-29 00:32 | 55.67604 | 91.88704 | 29457 ft | 438 kts | 33° |
| 2026-04-29 00:33 | 55.72500 | 91.95136 | 29456 ft | 438 kts | 33° |
| 2026-04-29 00:33 | 55.77344 | 92.01519 | 29440 ft | 438 kts | 33° |
| 2026-04-29 00:34 | 55.82237 | 92.07987 | 29440 ft | 438 kts | 33° |
| 2026-04-29 00:34 | 55.87129 | 92.14475 | 29434 ft | 439 kts | 33° |
| 2026-04-29 00:35 | 55.92019 | 92.20979 | 29431 ft | 438 kts | 33° |
| 2026-04-29 00:35 | 55.96907 | 92.27506 | 29467 ft | 438 kts | 33° |
| 2026-04-29 00:36 | 56.01758 | 92.33998 | 29428 ft | 439 kts | 33° |
| 2026-04-29 00:36 | 56.06642 | 92.40559 | 29437 ft | 439 kts | 33° |
| 2026-04-29 00:37 | 56.11532 | 92.47150 | 29426 ft | 440 kts | 33° |
| 2026-04-29 00:37 | 56.16394 | 92.53823 | 29430 ft | 441 kts | 36° |
| 2026-04-29 00:38 | 56.20872 | 92.61427 | 29426 ft | 444 kts | 40° |
| 2026-04-29 00:38 | 56.25285 | 92.69194 | 29421 ft | 444 kts | 39° |
| 2026-04-29 00:39 | 56.29702 | 92.76955 | 29420 ft | 444 kts | 39° |
| 2026-04-29 00:39 | 56.34125 | 92.84722 | 29420 ft | 444 kts | 39° |
| 2026-04-29 00:40 | 56.38525 | 92.92466 | 29430 ft | 445 kts | 39° |
| 2026-04-29 00:40 | 56.42901 | 93.00197 | 29425 ft | 445 kts | 39° |
| 2026-04-29 00:41 | 56.47320 | 93.08031 | 29418 ft | 445 kts | 40° |
| 2026-04-29 00:41 | 56.51740 | 93.15897 | 29420 ft | 445 kts | 40° |
| 2026-04-29 00:42 | 56.56145 | 93.23763 | 29421 ft | 444 kts | 40° |
| 2026-04-29 00:42 | 56.60545 | 93.31646 | 29424 ft | 444 kts | 40° |
| 2026-04-29 00:43 | 56.64909 | 93.39491 | 29426 ft | 444 kts | 40° |
| 2026-04-29 00:43 | 56.69301 | 93.47411 | 29419 ft | 444 kts | 40° |
| 2026-04-29 00:44 | 56.74081 | 93.54372 | 29430 ft | 438 kts | 29° |
| 2026-04-29 00:44 | 56.79410 | 93.59656 | 29425 ft | 434 kts | 20° |
| 2026-04-29 00:45 | 56.85003 | 93.63781 | 29431 ft | 434 kts | 19° |
| 2026-04-29 00:45 | 56.90630 | 93.67871 | 29418 ft | 435 kts | 19° |
| 2026-04-29 00:46 | 56.96255 | 93.72021 | 29421 ft | 436 kts | 19° |
| 2026-04-29 00:46 | 57.01841 | 93.76187 | 29416 ft | 436 kts | 19° |
| 2026-04-29 00:47 | 57.07467 | 93.80409 | 29419 ft | 437 kts | 19° |
| 2026-04-29 00:47 | 57.13101 | 93.84650 | 29411 ft | 437 kts | 19° |
| 2026-04-29 00:48 | 57.18733 | 93.88903 | 29409 ft | 437 kts | 19° |
| 2026-04-29 00:48 | 57.24364 | 93.93168 | 29407 ft | 437 kts | 19° |
| 2026-04-29 00:49 | 57.29950 | 93.97413 | 29399 ft | 437 kts | 19° |
| 2026-04-29 00:49 | 57.35482 | 94.01631 | 29405 ft | 437 kts | 19° |
| 2026-04-29 00:50 | 57.41105 | 94.05932 | 29406 ft | 437 kts | 19° |
| 2026-04-29 00:50 | 57.46732 | 94.10251 | 29400 ft | 437 kts | 19° |
| 2026-04-29 00:51 | 57.52358 | 94.14584 | 29400 ft | 437 kts | 19° |
| 2026-04-29 00:51 | 57.57987 | 94.18933 | 29398 ft | 437 kts | 19° |
| 2026-04-29 00:52 | 57.63575 | 94.23266 | 29433 ft | 438 kts | 19° |
| 2026-04-29 00:52 | 57.69218 | 94.27655 | 29401 ft | 439 kts | 19° |
| 2026-04-29 00:53 | 57.74865 | 94.32064 | 29390 ft | 439 kts | 19° |
| 2026-04-29 00:53 | 57.80497 | 94.36474 | 29390 ft | 438 kts | 19° |
| 2026-04-29 00:54 | 57.86120 | 94.40896 | 29385 ft | 438 kts | 19° |
| 2026-04-29 00:54 | 57.91749 | 94.45342 | 29378 ft | 439 kts | 19° |
| 2026-04-29 00:55 | 57.97342 | 94.49774 | 29376 ft | 439 kts | 19° |
| 2026-04-29 00:55 | 58.02957 | 94.54239 | 29374 ft | 439 kts | 19° |
| 2026-04-29 00:56 | 58.08583 | 94.58728 | 29372 ft | 439 kts | 19° |
| 2026-04-29 00:56 | 58.13265 | 94.62479 | 29386 ft | 439 kts | 20° |
| 2026-04-29 00:57 | 58.18590 | 94.68367 | 29366 ft | 447 kts | 31° |
| 2026-04-29 00:57 | 58.23340 | 94.76075 | 29367 ft | 453 kts | 40° |
| 2026-04-29 00:58 | 58.27693 | 94.84779 | 29348 ft | 454 kts | 41° |
| 2026-04-29 00:58 | 58.32030 | 94.93498 | 29356 ft | 454 kts | 40° |
| 2026-04-29 00:59 | 58.36331 | 95.02069 | 29338 ft | 454 kts | 40° |
| 2026-04-29 00:59 | 58.40689 | 95.10756 | 29341 ft | 453 kts | 40° |
| 2026-04-29 01:00 | 58.45069 | 95.19248 | 29334 ft | 448 kts | 36° |
| 2026-04-29 01:00 | 58.49934 | 95.26551 | 29330 ft | 444 kts | 31° |
| 2026-04-29 01:01 | 58.54871 | 95.33663 | 29333 ft | 444 kts | 31° |
| 2026-04-29 01:01 | 58.59804 | 95.40838 | 29319 ft | 445 kts | 32° |
| 2026-04-29 01:02 | 58.64730 | 95.48071 | 29338 ft | 446 kts | 32° |
| 2026-04-29 01:02 | 58.69662 | 95.55346 | 29321 ft | 447 kts | 32° |
| 2026-04-29 01:03 | 58.74575 | 95.62622 | 29315 ft | 447 kts | 32° |
| 2026-04-29 01:03 | 58.79506 | 95.69951 | 29312 ft | 448 kts | 32° |
| 2026-04-29 01:04 | 58.84443 | 95.77315 | 29309 ft | 448 kts | 32° |
| 2026-04-29 01:04 | 58.89340 | 95.84647 | 29296 ft | 448 kts | 32° |
| 2026-04-29 01:05 | 58.94258 | 95.92037 | 29301 ft | 448 kts | 32° |
| 2026-04-29 01:05 | 58.99172 | 95.99448 | 29292 ft | 447 kts | 32° |
| 2026-04-29 01:06 | 59.04013 | 96.06774 | 29288 ft | 448 kts | 32° |
| 2026-04-29 01:06 | 59.08926 | 96.14239 | 29287 ft | 447 kts | 32° |
| 2026-04-29 01:07 | 59.13825 | 96.21713 | 29290 ft | 447 kts | 32° |
| 2026-04-29 01:07 | 59.18693 | 96.29164 | 29290 ft | 447 kts | 32° |
| 2026-04-29 01:08 | 59.23587 | 96.36684 | 29282 ft | 447 kts | 32° |
| 2026-04-29 01:08 | 59.28476 | 96.44224 | 29319 ft | 448 kts | 32° |
| 2026-04-29 01:09 | 59.33362 | 96.51789 | 29274 ft | 447 kts | 32° |
| 2026-04-29 01:09 | 59.38233 | 96.59359 | 29265 ft | 446 kts | 32° |
| 2026-04-29 01:10 | 59.43054 | 96.66877 | 29269 ft | 445 kts | 32° |
| 2026-04-29 01:10 | 59.47898 | 96.74460 | 29263 ft | 445 kts | 32° |
| 2026-04-29 01:11 | 59.52752 | 96.82087 | 29254 ft | 446 kts | 32° |
| 2026-04-29 01:11 | 59.57600 | 96.89735 | 29243 ft | 446 kts | 32° |
| 2026-04-29 01:12 | 59.62442 | 96.97403 | 29249 ft | 447 kts | 32° |
| 2026-04-29 01:12 | 59.67228 | 97.05009 | 29227 ft | 447 kts | 32° |
| 2026-04-29 01:13 | 59.72076 | 97.12747 | 29249 ft | 448 kts | 32° |
| 2026-04-29 01:13 | 59.76896 | 97.20466 | 29225 ft | 448 kts | 32° |
| 2026-04-29 01:14 | 59.81749 | 97.28271 | 29223 ft | 449 kts | 32° |
| 2026-04-29 01:14 | 59.86586 | 97.36083 | 29222 ft | 447 kts | 32° |
| 2026-04-29 01:15 | 59.91411 | 97.43903 | 29210 ft | 446 kts | 32° |
| 2026-04-29 01:15 | 59.96224 | 97.51731 | 29232 ft | 446 kts | 32° |
| 2026-04-29 01:16 | 60.01033 | 97.59582 | 29200 ft | 447 kts | 32° |
| 2026-04-29 01:16 | 60.05823 | 97.67433 | 29202 ft | 448 kts | 32° |
| 2026-04-29 01:17 | 60.10646 | 97.75372 | 29185 ft | 448 kts | 32° |
| 2026-04-29 01:17 | 60.15465 | 97.83332 | 29190 ft | 449 kts | 32° |
| 2026-04-29 01:18 | 60.20285 | 97.91328 | 29177 ft | 449 kts | 32° |
| 2026-04-29 01:18 | 60.27445 | 98.03267 | 29188 ft | 449 kts | 32° |
| 2026-04-29 01:19 | 60.32217 | 98.11263 | 29178 ft | 448 kts | 32° |
| 2026-04-29 01:19 | 60.36998 | 98.19304 | 29172 ft | 446 kts | 32° |
| 2026-04-29 01:20 | 60.41754 | 98.27334 | 29160 ft | 444 kts | 32° |
| 2026-04-29 01:20 | 60.46498 | 98.35374 | 29170 ft | 444 kts | 32° |
| 2026-04-29 01:21 | 60.51235 | 98.43432 | 29158 ft | 445 kts | 32° |
| 2026-04-29 01:21 | 60.55971 | 98.51522 | 29150 ft | 445 kts | 32° |
| 2026-04-29 01:22 | 60.60695 | 98.59625 | 29141 ft | 445 kts | 32° |
| 2026-04-29 01:22 | 60.65430 | 98.67781 | 29145 ft | 446 kts | 32° |
| 2026-04-29 01:23 | 60.70166 | 98.75968 | 29126 ft | 446 kts | 32° |
| 2026-04-29 01:23 | 60.74894 | 98.84175 | 29138 ft | 446 kts | 32° |
| 2026-04-29 01:24 | 60.79606 | 98.92390 | 29193 ft | 447 kts | 32° |
| 2026-04-29 01:24 | 60.84293 | 99.00587 | 29135 ft | 450 kts | 33° |
| 2026-04-29 01:25 | 60.89063 | 99.08965 | 29126 ft | 452 kts | 33° |
| 2026-04-29 01:25 | 60.93835 | 99.17387 | 29115 ft | 452 kts | 33° |
| 2026-04-29 01:26 | 60.98599 | 99.25829 | 29112 ft | 452 kts | 33° |
| 2026-04-29 01:26 | 61.03354 | 99.34287 | 29119 ft | 453 kts | 33° |
| 2026-04-29 01:27 | 61.08108 | 99.42777 | 29110 ft | 455 kts | 33° |
| 2026-04-29 01:27 | 61.12901 | 99.51373 | 29105 ft | 456 kts | 33° |
| 2026-04-29 01:28 | 61.17721 | 99.59914 | 29100 ft | 454 kts | 31° |
| 2026-04-29 01:28 | 61.22847 | 99.67373 | 29094 ft | 449 kts | 27° |
| 2026-04-29 01:29 | 61.28019 | 99.74700 | 29093 ft | 450 kts | 27° |
| 2026-04-29 01:29 | 61.33201 | 99.82109 | 29103 ft | 454 kts | 28° |
| 2026-04-29 01:30 | 61.38462 | 99.89691 | 29107 ft | 465 kts | 30° |
| 2026-04-29 01:30 | 61.43768 | 99.97403 | 29080 ft | 467 kts | 30° |
| 2026-04-29 01:31 | 61.49008 | 100.05066 | 29070 ft | 465 kts | 30° |
| 2026-04-29 01:31 | 61.54300 | 100.12825 | 29073 ft | 464 kts | 30° |
| 2026-04-29 01:32 | 61.59593 | 100.20609 | 29078 ft | 465 kts | 30° |
| 2026-04-29 01:32 | 61.64906 | 100.28457 | 29066 ft | 468 kts | 30° |
| 2026-04-29 01:33 | 61.70238 | 100.36369 | 29065 ft | 469 kts | 31° |
| 2026-04-29 01:33 | 61.75549 | 100.44284 | 29063 ft | 470 kts | 31° |
| 2026-04-29 01:34 | 61.80895 | 100.52288 | 29055 ft | 470 kts | 31° |
| 2026-04-29 01:34 | 61.86232 | 100.60313 | 29056 ft | 470 kts | 31° |
| 2026-04-29 01:35 | 61.91557 | 100.68352 | 29044 ft | 469 kts | 31° |
| 2026-04-29 01:35 | 61.96870 | 100.76410 | 29045 ft | 469 kts | 31° |
| 2026-04-29 01:36 | 62.02126 | 100.84415 | 29032 ft | 469 kts | 31° |
| 2026-04-29 01:36 | 62.07453 | 100.92563 | 29043 ft | 472 kts | 32° |
| 2026-04-29 01:37 | 62.12709 | 101.00637 | 29033 ft | 475 kts | 32° |
| 2026-04-29 01:37 | 62.18083 | 101.08932 | 29024 ft | 477 kts | 32° |
| 2026-04-29 01:38 | 62.23467 | 101.17281 | 29008 ft | 477 kts | 32° |
| 2026-04-29 01:38 | 62.28843 | 101.25651 | 29014 ft | 477 kts | 32° |
| 2026-04-29 01:39 | 62.34137 | 101.34276 | 28997 ft | 479 kts | 38° |
| 2026-04-29 01:39 | 62.39002 | 101.43948 | 29001 ft | 479 kts | 40° |
| 2026-04-29 01:40 | 62.43852 | 101.53813 | 28991 ft | 479 kts | 40° |
| 2026-04-29 01:40 | 62.48709 | 101.63670 | 28982 ft | 479 kts | 39° |
| 2026-04-29 01:41 | 62.53574 | 101.73529 | 28978 ft | 479 kts | 39° |
| 2026-04-29 01:41 | 62.58438 | 101.83411 | 28984 ft | 479 kts | 40° |
| 2026-04-29 01:42 | 62.63289 | 101.93325 | 28984 ft | 480 kts | 40° |
| 2026-04-29 01:42 | 62.68068 | 102.03132 | 28965 ft | 482 kts | 39° |
| 2026-04-29 01:43 | 62.72949 | 102.13184 | 28953 ft | 484 kts | 40° |
| 2026-04-29 01:43 | 62.77835 | 102.23304 | 28956 ft | 484 kts | 40° |
| 2026-04-29 01:44 | 62.82716 | 102.33469 | 28936 ft | 484 kts | 40° |
| 2026-04-29 01:44 | 62.87582 | 102.43650 | 28940 ft | 483 kts | 40° |
| 2026-04-29 01:45 | 62.92435 | 102.53852 | 28934 ft | 483 kts | 39° |
| 2026-04-29 01:45 | 62.97248 | 102.64017 | 28925 ft | 483 kts | 39° |
| 2026-04-29 01:46 | 63.02080 | 102.74273 | 28914 ft | 483 kts | 39° |
| 2026-04-29 01:46 | 63.06910 | 102.84572 | 28898 ft | 483 kts | 39° |
| 2026-04-29 01:47 | 63.11733 | 102.94899 | 28911 ft | 483 kts | 39° |
| 2026-04-29 01:47 | 63.16491 | 103.05147 | 28908 ft | 485 kts | 39° |
| 2026-04-29 01:48 | 63.21330 | 103.15623 | 28890 ft | 486 kts | 39° |
| 2026-04-29 01:48 | 63.26137 | 103.26082 | 28891 ft | 487 kts | 39° |
| 2026-04-29 01:49 | 63.30969 | 103.36642 | 28879 ft | 487 kts | 39° |
| 2026-04-29 01:49 | 63.35791 | 103.47233 | 28882 ft | 487 kts | 39° |
| 2026-04-29 01:50 | 63.40607 | 103.57866 | 28901 ft | 487 kts | 39° |
| 2026-04-29 01:50 | 63.45416 | 103.68534 | 28881 ft | 487 kts | 40° |
| 2026-04-29 01:51 | 63.50220 | 103.79245 | 28864 ft | 488 kts | 40° |
| 2026-04-29 01:51 | 63.54213 | 103.88191 | 28864 ft | 488 kts | 40° |
| 2026-04-29 01:52 | 63.59010 | 103.98982 | 28876 ft | 488 kts | 40° |
| 2026-04-29 01:52 | 63.64446 | 104.11672 | 28867 ft | 491 kts | 42° |
| 2026-04-29 01:53 | 63.69093 | 104.22964 | 28848 ft | 492 kts | 43° |
| 2026-04-29 01:53 | 63.72987 | 104.32469 | 28849 ft | 492 kts | 43° |
| 2026-04-29 01:54 | 63.77607 | 104.43742 | 28825 ft | 492 kts | 43° |
| 2026-04-29 01:54 | 63.82254 | 104.55100 | 28831 ft | 492 kts | 43° |
| 2026-04-29 01:55 | 63.86894 | 104.66494 | 28816 ft | 491 kts | 43° |
| 2026-04-29 01:55 | 63.91519 | 104.77911 | 28825 ft | 491 kts | 43° |
| 2026-04-29 01:56 | 63.96138 | 104.89375 | 28815 ft | 491 kts | 44° |
| 2026-04-29 01:56 | 64.00666 | 105.00682 | 28811 ft | 491 kts | 44° |
| 2026-04-29 01:57 | 64.05264 | 105.12218 | 28808 ft | 491 kts | 44° |
| 2026-04-29 01:57 | 64.09850 | 105.23784 | 28808 ft | 491 kts | 44° |
| 2026-04-29 01:58 | 64.14426 | 105.35385 | 28798 ft | 491 kts | 44° |
| 2026-04-29 01:58 | 64.18992 | 105.47024 | 28808 ft | 491 kts | 45° |
| 2026-04-29 01:59 | 64.23552 | 105.58711 | 28795 ft | 491 kts | 45° |
| 2026-04-29 01:59 | 64.28070 | 105.70352 | 28796 ft | 491 kts | 45° |
| 2026-04-29 02:00 | 64.32604 | 105.82096 | 28799 ft | 490 kts | 45° |
| 2026-04-29 02:00 | 64.37129 | 105.93879 | 28797 ft | 490 kts | 45° |
| 2026-04-29 02:01 | 64.41599 | 106.05583 | 28791 ft | 491 kts | 45° |
| 2026-04-29 02:01 | 64.46110 | 106.17456 | 28791 ft | 491 kts | 45° |
| 2026-04-29 02:02 | 64.50589 | 106.29309 | 28774 ft | 491 kts | 46° |
| 2026-04-29 02:02 | 64.55085 | 106.41274 | 28778 ft | 492 kts | 46° |
| 2026-04-29 02:03 | 64.59572 | 106.53279 | 28771 ft | 492 kts | 46° |
| 2026-04-29 02:03 | 64.64049 | 106.65323 | 28771 ft | 492 kts | 46° |
| 2026-04-29 02:04 | 64.68520 | 106.77419 | 28768 ft | 492 kts | 46° |
| 2026-04-29 02:04 | 64.72981 | 106.89552 | 28756 ft | 492 kts | 47° |
| 2026-04-29 02:05 | 64.77368 | 107.01547 | 28751 ft | 491 kts | 47° |
| 2026-04-29 02:05 | 64.81799 | 107.13735 | 28751 ft | 491 kts | 47° |
| 2026-04-29 02:06 | 64.86195 | 107.25892 | 28750 ft | 491 kts | 47° |
| 2026-04-29 02:06 | 64.90603 | 107.38153 | 28745 ft | 491 kts | 47° |
| 2026-04-29 02:07 | 64.95016 | 107.50489 | 28737 ft | 493 kts | 48° |
| 2026-04-29 02:07 | 64.99431 | 107.62908 | 28727 ft | 493 kts | 48° |
| 2026-04-29 02:08 | 65.03831 | 107.75356 | 28747 ft | 493 kts | 48° |
| 2026-04-29 02:08 | 65.08224 | 107.87851 | 28734 ft | 493 kts | 48° |
| 2026-04-29 02:09 | 65.12547 | 108.00216 | 28724 ft | 493 kts | 48° |
| 2026-04-29 02:09 | 65.16895 | 108.12721 | 28726 ft | 493 kts | 49° |
| 2026-04-29 02:10 | 65.21253 | 108.25331 | 28716 ft | 492 kts | 49° |
| 2026-04-29 02:10 | 65.25589 | 108.37945 | 28720 ft | 491 kts | 49° |
| 2026-04-29 02:11 | 65.29913 | 108.50593 | 28712 ft | 490 kts | 49° |
| 2026-04-29 02:11 | 65.34187 | 108.63173 | 28723 ft | 490 kts | 49° |
| 2026-04-29 02:12 | 65.38497 | 108.75931 | 28710 ft | 494 kts | 50° |
| 2026-04-29 02:12 | 65.42830 | 108.88832 | 28715 ft | 496 kts | 51° |
| 2026-04-29 02:13 | 65.47080 | 109.01563 | 28702 ft | 497 kts | 51° |
| 2026-04-29 02:13 | 65.51395 | 109.14567 | 28703 ft | 496 kts | 50° |
| 2026-04-29 02:14 | 65.55693 | 109.27592 | 28697 ft | 496 kts | 51° |
| 2026-04-29 02:14 | 65.59977 | 109.40652 | 28697 ft | 495 kts | 51° |
| 2026-04-29 02:15 | 65.64247 | 109.53746 | 28690 ft | 494 kts | 51° |
| 2026-04-29 02:15 | 65.68492 | 109.66833 | 28679 ft | 493 kts | 52° |
| 2026-04-29 02:16 | 65.72714 | 109.79940 | 28679 ft | 492 kts | 52° |
| 2026-04-29 02:16 | 65.76891 | 109.92978 | 28661 ft | 492 kts | 53° |
| 2026-04-29 02:17 | 65.81028 | 110.05967 | 28668 ft | 492 kts | 53° |
| 2026-04-29 02:17 | 65.85219 | 110.19205 | 28659 ft | 493 kts | 53° |
| 2026-04-29 02:18 | 65.89407 | 110.32507 | 28658 ft | 494 kts | 53° |
| 2026-04-29 02:18 | 65.93586 | 110.45867 | 28644 ft | 494 kts | 53° |
| 2026-04-29 02:19 | 65.97746 | 110.59250 | 28654 ft | 493 kts | 54° |
| 2026-04-29 02:19 | 66.01887 | 110.72650 | 28635 ft | 493 kts | 54° |
| 2026-04-29 02:20 | 66.06019 | 110.86101 | 28635 ft | 492 kts | 54° |
| 2026-04-29 02:20 | 66.10106 | 110.99488 | 28637 ft | 492 kts | 54° |
| 2026-04-29 02:21 | 66.14152 | 111.12818 | 28632 ft | 491 kts | 54° |
| 2026-04-29 02:21 | 66.18236 | 111.26359 | 28615 ft | 491 kts | 54° |
| 2026-04-29 02:22 | 66.22300 | 111.39913 | 28623 ft | 490 kts | 54° |
| 2026-04-29 02:22 | 66.26352 | 111.53512 | 28632 ft | 489 kts | 54° |
| 2026-04-29 02:23 | 66.30386 | 111.67134 | 28616 ft | 489 kts | 55° |
| 2026-04-29 02:23 | 66.34408 | 111.80803 | 28605 ft | 489 kts | 55° |
| 2026-04-29 02:24 | 66.38390 | 111.94405 | 28612 ft | 488 kts | 55° |
| 2026-04-29 02:25 | 66.43684 | 112.15721 | 28619 ft | 485 kts | 64° |
| 2026-04-29 02:25 | 66.46782 | 112.30682 | 28606 ft | 484 kts | 64° |
| 2026-04-29 02:26 | 66.49874 | 112.45665 | 28611 ft | 485 kts | 64° |
| 2026-04-29 02:26 | 66.52985 | 112.60674 | 28620 ft | 485 kts | 64° |
| 2026-04-29 02:27 | 66.56072 | 112.75605 | 28618 ft | 485 kts | 65° |
| 2026-04-29 02:27 | 66.59156 | 112.90613 | 28619 ft | 482 kts | 65° |
| 2026-04-29 02:28 | 66.62174 | 113.05419 | 28623 ft | 480 kts | 65° |
| 2026-04-29 02:28 | 66.65208 | 113.20411 | 28632 ft | 479 kts | 65° |
| 2026-04-29 02:29 | 66.68221 | 113.35413 | 28634 ft | 479 kts | 66° |
| 2026-04-29 02:29 | 66.71221 | 113.50454 | 28639 ft | 479 kts | 66° |
| 2026-04-29 02:30 | 66.74211 | 113.65554 | 28633 ft | 480 kts | 66° |
| 2026-04-29 02:30 | 66.77191 | 113.80707 | 28637 ft | 480 kts | 66° |
| 2026-04-29 02:31 | 66.80150 | 113.95851 | 28639 ft | 479 kts | 67° |
| 2026-04-29 02:31 | 66.83052 | 114.10842 | 28632 ft | 477 kts | 67° |
| 2026-04-29 02:32 | 66.85946 | 114.25896 | 28632 ft | 477 kts | 67° |
| 2026-04-29 02:32 | 66.88842 | 114.41061 | 28644 ft | 476 kts | 67° |
| 2026-04-29 02:33 | 66.91720 | 114.56250 | 28645 ft | 476 kts | 68° |
| 2026-04-29 02:33 | 66.94589 | 114.71500 | 28617 ft | 476 kts | 69° |
| 2026-04-29 02:34 | 66.97428 | 114.86658 | 28638 ft | 470 kts | 70° |
| 2026-04-29 02:34 | 67.00174 | 115.01488 | 28643 ft | 466 kts | 70° |
| 2026-04-29 02:35 | 67.02926 | 115.16455 | 28642 ft | 463 kts | 70° |
| 2026-04-29 02:35 | 67.05636 | 115.31296 | 28647 ft | 461 kts | 71° |
| 2026-04-29 02:36 | 67.08338 | 115.46204 | 28650 ft | 461 kts | 71° |
| 2026-04-29 02:36 | 67.11029 | 115.61162 | 28654 ft | 461 kts | 71° |
| 2026-04-29 02:37 | 67.13709 | 115.76163 | 28617 ft | 462 kts | 71° |
| 2026-04-29 02:37 | 67.16369 | 115.91153 | 28648 ft | 460 kts | 72° |
| 2026-04-29 02:38 | 67.18960 | 116.05879 | 28656 ft | 460 kts | 72° |
| 2026-04-29 02:38 | 67.21594 | 116.20958 | 28643 ft | 460 kts | 72° |
| 2026-04-29 02:39 | 67.24207 | 116.36030 | 28653 ft | 460 kts | 72° |
| 2026-04-29 02:39 | 67.26803 | 116.51117 | 28657 ft | 459 kts | 72° |
| 2026-04-29 02:40 | 67.29381 | 116.66216 | 28653 ft | 459 kts | 72° |
| 2026-04-29 02:40 | 67.31941 | 116.81319 | 28640 ft | 457 kts | 72° |
| 2026-04-29 02:41 | 67.34482 | 116.96429 | 28655 ft | 457 kts | 72° |
| 2026-04-29 02:41 | 67.36976 | 117.11376 | 28659 ft | 456 kts | 72° |
| 2026-04-29 02:42 | 67.39063 | 117.23969 | 28662 ft | 457 kts | 72° |
| 2026-04-29 02:42 | 67.41968 | 117.41636 | 28661 ft | 457 kts | 72° |
| 2026-04-29 02:43 | 67.44046 | 117.54377 | 28659 ft | 457 kts | 72° |
| 2026-04-29 02:43 | 67.46515 | 117.69620 | 28662 ft | 457 kts | 72° |
| 2026-04-29 02:44 | 67.48956 | 117.84817 | 28626 ft | 456 kts | 72° |
| 2026-04-29 02:44 | 67.51386 | 118.00054 | 28657 ft | 456 kts | 72° |
| 2026-04-29 02:45 | 67.53780 | 118.15186 | 28657 ft | 457 kts | 72° |
| 2026-04-29 02:45 | 67.56196 | 118.30589 | 28662 ft | 457 kts | 72° |
| 2026-04-29 02:46 | 67.58595 | 118.46002 | 28660 ft | 457 kts | 72° |
| 2026-04-29 02:46 | 67.60982 | 118.61451 | 28659 ft | 457 kts | 72° |
| 2026-04-29 02:47 | 67.63381 | 118.76886 | 28659 ft | 458 kts | 70° |
| 2026-04-29 02:47 | 67.66301 | 118.91715 | 28648 ft | 460 kts | 66° |
| 2026-04-29 02:48 | 67.69292 | 119.06325 | 28666 ft | 460 kts | 66° |
| 2026-04-29 02:48 | 67.72296 | 119.21181 | 28664 ft | 459 kts | 66° |
| 2026-04-29 02:49 | 67.75268 | 119.36075 | 28669 ft | 457 kts | 66° |
| 2026-04-29 02:49 | 67.78215 | 119.50981 | 28666 ft | 456 kts | 66° |
| 2026-04-29 02:50 | 67.81114 | 119.65759 | 28666 ft | 456 kts | 66° |
| 2026-04-29 02:50 | 67.84024 | 119.80696 | 28672 ft | 455 kts | 67° |
| 2026-04-29 02:51 | 67.86911 | 119.95629 | 28669 ft | 455 kts | 66° |
| 2026-04-29 02:51 | 67.89756 | 120.10428 | 28683 ft | 456 kts | 66° |
| 2026-04-29 02:52 | 67.92625 | 120.25471 | 28675 ft | 457 kts | 66° |
| 2026-04-29 02:52 | 67.95485 | 120.40572 | 28680 ft | 457 kts | 66° |
| 2026-04-29 02:53 | 67.98331 | 120.55716 | 28680 ft | 457 kts | 67° |
| 2026-04-29 02:53 | 68.01145 | 120.70792 | 28689 ft | 457 kts | 67° |
| 2026-04-29 02:54 | 68.03965 | 120.86031 | 28680 ft | 457 kts | 66° |
| 2026-04-29 02:54 | 68.06735 | 121.01093 | 28682 ft | 457 kts | 66° |
| 2026-04-29 02:55 | 68.09524 | 121.16364 | 28682 ft | 455 kts | 66° |
| 2026-04-29 02:55 | 68.12284 | 121.31599 | 28699 ft | 453 kts | 66° |
| 2026-04-29 02:56 | 68.15018 | 121.46819 | 28709 ft | 453 kts | 66° |
| 2026-04-29 02:56 | 68.17742 | 121.62075 | 28694 ft | 453 kts | 67° |
| 2026-04-29 02:57 | 68.20453 | 121.77376 | 28687 ft | 453 kts | 66° |
| 2026-04-29 02:57 | 68.23133 | 121.92636 | 28713 ft | 453 kts | 66° |
| 2026-04-29 02:58 | 68.25804 | 122.07939 | 28721 ft | 454 kts | 67° |
| 2026-04-29 02:58 | 68.28477 | 122.23379 | 28723 ft | 454 kts | 67° |
| 2026-04-29 02:59 | 68.31123 | 122.38783 | 28717 ft | 455 kts | 67° |
| 2026-04-29 02:59 | 68.33774 | 122.54337 | 28733 ft | 454 kts | 67° |
| 2026-04-29 03:00 | 68.36399 | 122.69859 | 28730 ft | 453 kts | 67° |
| 2026-04-29 03:00 | 68.39004 | 122.85382 | 28720 ft | 452 kts | 66° |
| 2026-04-29 03:01 | 68.41559 | 123.00720 | 28728 ft | 451 kts | 67° |
| 2026-04-29 03:01 | 68.44127 | 123.16265 | 28738 ft | 451 kts | 67° |
| 2026-04-29 03:02 | 68.46687 | 123.31864 | 28730 ft | 452 kts | 67° |
| 2026-04-29 03:02 | 68.49231 | 123.47510 | 28730 ft | 452 kts | 67° |
| 2026-04-29 03:03 | 68.51759 | 123.63209 | 28735 ft | 452 kts | 67° |
| 2026-04-29 03:03 | 68.54274 | 123.78948 | 28734 ft | 452 kts | 68° |
| 2026-04-29 03:04 | 68.56774 | 123.94716 | 28734 ft | 452 kts | 68° |
| 2026-04-29 03:04 | 68.59228 | 124.10313 | 28735 ft | 452 kts | 68° |
| 2026-04-29 03:05 | 68.61698 | 124.26155 | 28742 ft | 451 kts | 68° |
| 2026-04-29 03:05 | 68.64148 | 124.41978 | 28735 ft | 450 kts | 68° |
| 2026-04-29 03:06 | 68.66561 | 124.57694 | 28738 ft | 449 kts | 68° |
| 2026-04-29 03:06 | 68.68965 | 124.73487 | 28742 ft | 448 kts | 68° |
| 2026-04-29 03:07 | 68.71353 | 124.89315 | 28729 ft | 448 kts | 68° |
| 2026-04-29 03:07 | 68.73703 | 125.04997 | 28744 ft | 449 kts | 68° |
| 2026-04-29 03:08 | 68.76076 | 125.20960 | 28748 ft | 450 kts | 68° |
| 2026-04-29 03:08 | 68.78433 | 125.36982 | 28759 ft | 450 kts | 68° |
| 2026-04-29 03:09 | 68.80759 | 125.52918 | 28750 ft | 451 kts | 68° |
| 2026-04-29 03:09 | 68.83086 | 125.68998 | 28757 ft | 450 kts | 68° |
| 2026-04-29 03:10 | 68.85399 | 125.85112 | 28759 ft | 450 kts | 69° |
| 2026-04-29 03:10 | 68.87662 | 126.01035 | 28765 ft | 449 kts | 68° |
| 2026-04-29 03:11 | 68.89935 | 126.17136 | 28762 ft | 447 kts | 68° |
| 2026-04-29 03:11 | 68.92179 | 126.33179 | 28768 ft | 445 kts | 69° |
| 2026-04-29 03:12 | 68.94407 | 126.49264 | 28772 ft | 445 kts | 68° |
| 2026-04-29 03:12 | 68.96608 | 126.65263 | 28772 ft | 445 kts | 69° |
| 2026-04-29 03:13 | 68.98809 | 126.81419 | 28775 ft | 446 kts | 69° |
| 2026-04-29 03:13 | 69.00991 | 126.97584 | 28771 ft | 446 kts | 69° |
| 2026-04-29 03:14 | 69.03136 | 127.13631 | 28775 ft | 447 kts | 69° |
| 2026-04-29 03:14 | 69.05295 | 127.29909 | 28788 ft | 447 kts | 69° |
| 2026-04-29 03:15 | 69.07425 | 127.46124 | 28781 ft | 447 kts | 69° |
| 2026-04-29 03:15 | 69.09556 | 127.62495 | 28789 ft | 447 kts | 69° |
| 2026-04-29 03:16 | 69.11666 | 127.78867 | 28794 ft | 445 kts | 69° |
| 2026-04-29 03:16 | 69.13750 | 127.95180 | 28794 ft | 443 kts | 69° |
| 2026-04-29 03:17 | 69.15769 | 128.11131 | 28800 ft | 442 kts | 69° |
| 2026-04-29 03:17 | 69.17812 | 128.27414 | 28799 ft | 442 kts | 69° |
| 2026-04-29 03:18 | 69.19842 | 128.43753 | 28803 ft | 442 kts | 70° |
| 2026-04-29 03:18 | 69.21854 | 128.60111 | 28800 ft | 442 kts | 70° |
| 2026-04-29 03:19 | 69.23856 | 128.76526 | 28799 ft | 443 kts | 70° |
| 2026-04-29 03:19 | 69.25834 | 128.92876 | 28808 ft | 443 kts | 70° |
| 2026-04-29 03:20 | 69.27816 | 129.09152 | 28805 ft | 444 kts | 69° |
| 2026-04-29 03:20 | 69.29978 | 129.25502 | 28799 ft | 444 kts | 68° |
| 2026-04-29 03:21 | 69.32160 | 129.41851 | 28802 ft | 444 kts | 68° |
| 2026-04-29 03:21 | 69.34292 | 129.58148 | 28837 ft | 444 kts | 68° |
| 2026-04-29 03:22 | 69.36411 | 129.74564 | 28806 ft | 442 kts | 69° |
| 2026-04-29 03:22 | 69.37104 | 129.79976 | 28813 ft | 441 kts | 68° |